ZIMOWY RUNMAGEDDON REKRUT WARSZAWA

Organizator/ Organizer:
Extreme Events, Runmageddon
Data/ Date:
2018-01-13
Miejsce/ Place:
Warszawa
Dystans/ Distance:
6 km
Zgłoszonych/ Registered:
1546
Wystartowało/ Started:
1434
Nie ukończyło/ Not finished:
25
Ukończyło/ Finished:
1409
Na trasie/ On track:
0

Klasyfikacja/ Classiffication: Open Mężczyzn

Wyniki nieoficjalne !!!
Pełne wyniki/ Full Results : PDF | CSV
Wyniki uproszczone/ Simple results : PDF | PDF2 | CSV
 
Klasyfikacje w punktach pomiarowych/ Classification for time points: Meta

Msc/ RnkZawodnik/ NameNumer/ BibKlub/ TeamMiejscowość/ CityKraj/ CountryKategoria/ CategoryMkat/ CatRnkK/M/ W/MSeriaCzas
netto
6km
Czas
brutto
6km
Różn/ GapTempo
min/km
Tempo
km/h
       
1SZCZEPANIAK Marcin 82XRUNNERSOpen Mężczyzn1M 108:3000:41:21.2000:41:21.20 6:538.7
2SELIANIN Dmytro 1157Open Mężczyzn2M 911:0000:44:38.8500:44:38.85+00:03:177:268.1
3PIEKUTOWSKI Ireneusz 1536Open Mężczyzn3M 1812:0000:47:00.5500:47:00.55+00:05:397:507.7
4CHUDAŃSKI Hubert 1410Open Mężczyzn4M 2311:4500:48:44.7500:48:44.75+00:07:238:077.4
5GRZESZCZAK Mateusz 1026Open Mężczyzn5M 2410:4500:48:47.6500:48:47.65+00:07:268:077.4
6POŁATYŃSKI Daniel 1538Open Mężczyzn6M 2512:0000:48:49.0000:48:49.00+00:07:278:087.4
7WILK Sylwester 777HUSARIA RACE TEAMOpen Mężczyzn7M 2710:4500:48:55.9500:48:55.95+00:07:348:097.4
8PUDŁO Mateusz 224HUSARIA RACE TEAMOpen Mężczyzn8M 3509:0000:51:06.9500:51:06.95+00:09:458:317
9PAWŁOWSKI Kamil 1182HARPAGANY TEAMOpen Mężczyzn9M 3611:1500:51:10.1500:51:10.15+00:09:488:317
10DĘBCZYŃSKI Cezary 1475HARPAGANY TEAMOpen Mężczyzn10M 3711:1500:51:10.9000:51:10.90+00:09:498:317
11KRAWCZYK Tomasz 43HUSARIA RACE TEAMOpen Mężczyzn11M 4808:3000:52:37.5000:52:37.50+00:11:168:466.8
12MÓRAWSKI Mieszko 222HUSARIA RACE TEAMOpen Mężczyzn12M 5109:0000:53:03.0000:53:03.00+00:11:418:506.8
13SZELĄG Marcin 1573Open Mężczyzn13M 5211:4500:53:07.2000:53:07.20+00:11:468:516.8
14STANISZEWSKI Paweł 1442Open Mężczyzn14M 5311:4500:53:08.5500:53:08.55+00:11:478:516.8
15WÓJCIK Karol 857Open Mężczyzn15M 5510:1500:53:14.8500:53:14.85+00:11:538:526.8
16WOJCIECHOWSKI Konrad 1059Open Mężczyzn16M 5710:4500:53:21.7500:53:21.75+00:12:008:536.7
17SIOK Tomasz 850Open Mężczyzn17M 5910:1500:53:38.9500:53:38.95+00:12:178:566.7
18LUBOS Franciszek 1560Open Mężczyzn18M 6012:0000:54:05.5000:54:05.50+00:12:449:006.7
19PĘKAŁA Sebastian 223HUSARIA RACE TEAMOpen Mężczyzn19M 6109:0000:54:06.2500:54:06.25+00:12:459:016.7
20KORKOSZ Ireneusz 1032Open Mężczyzn20M 6210:4500:54:07.0000:54:07.00+00:12:459:016.7
21BŁASZCZYK Michał 696Open Mężczyzn21M 6310:0000:54:25.0000:54:25.00+00:13:039:046.6
22KANIA Michał 902VISITORSOpen Mężczyzn22M 6410:3000:54:32.7500:54:32.75+00:13:119:056.6
23RADOSLAW Radosław 1155Open Mężczyzn23M 6711:0000:55:04.5500:55:04.55+00:13:439:106.5
24GIŻEWSKI Michał 264Open Mężczyzn24M 7009:0000:55:26.5500:55:26.55+00:14:059:146.5
25KOŁODZIEJ Arkadiusz 1374HUSARIA RACE TEAMOpen Mężczyzn25M 7111:4500:55:27.9000:55:27.90+00:14:069:146.5
26MICHALAK Paweł 1080CROSSFIT ŁUKÓW & CROSSFIT SIEDLCEOpen Masters Mężczyzn1M 7211:0000:55:29.9000:55:29.90+00:14:089:146.5
27KOSTECKI Michał 1145Open Mężczyzn26M 7311:0000:55:34.4000:55:34.40+00:14:139:156.5
28BORYSEWICZ Wiktor 545LOFT TEAM EXTREMEOpen Mężczyzn27M 7409:4500:55:35.3500:55:35.35+00:14:149:156.5
29KĘDZIOREK Eryk 1327Open Mężczyzn28M 7512:0000:55:55.7500:55:55.75+00:14:349:196.4
30NOWAK Daniel 1532Open Mężczyzn29M 7712:0000:55:59.5500:55:59.55+00:14:389:196.4
31TARGONSKI Adrian 295Open Mężczyzn30M 7909:0000:56:08.9000:56:08.90+00:14:479:216.4
32HELLWICH Łukasz 499Open Mężczyzn31M 8109:3000:56:35.2000:56:35.20+00:15:149:256.4
33MAJEK Paweł 904VISITORSOpen Mężczyzn32M 8310:3000:56:50.1000:56:50.10+00:15:289:286.3
34KAJDEWICZ Adam 821Open Mężczyzn33M 8410:1500:56:52.7500:56:52.75+00:15:319:286.3
35OMEN Przemysław 1243Open Mężczyzn34M 8611:1500:57:01.3500:57:01.35+00:15:409:306.3
36SALCZAK-BEREDA Grzegorz 883IQ BUDOWNICTWO SQUADOpen Mężczyzn35M 8710:3000:57:01.8500:57:01.85+00:15:409:306.3
37BURAK Łukasz 790MONKEYS' TEAMOpen Mężczyzn36M 8810:1500:57:08.7000:57:08.70+00:15:479:316.3
38MACIĄG Michał 1495RYCKI EDAM JAKOŚĆ TRADYCJAOpen Mężczyzn37M 9012:0000:57:14.7000:57:14.70+00:15:539:326.3
39SZTERNER Bartosz 1054Open Mężczyzn38M 9110:4500:57:15.2000:57:15.20+00:15:549:326.3
40DYCZKOWSKI Andrzej 1277HUSARIA RACE TEAMOpen Mężczyzn39M 9211:3000:57:15.4000:57:15.40+00:15:549:326.3
41DOMAŃSKI Damian 1515Open Mężczyzn40M 9312:0000:57:20.5000:57:20.50+00:15:599:336.3
42LUDWICZAK Jacek 18DZIADY OCROpen Masters Mężczyzn2M 9408:3000:57:20.6500:57:20.65+00:15:599:336.3
43SZYSZKO Cezary 1549Open Mężczyzn41M 9512:0000:57:26.3000:57:26.30+00:16:059:346.3
44GOTTWALD Jaroslav 660OCR RUNNERS OLOMOUCOpen Mężczyzn42M 9612:0000:57:36.6000:57:36.60+00:16:159:366.3
45HAWRYŁO Łukasz 268Open Mężczyzn43M 9709:0000:57:43.6500:57:43.65+00:16:229:376.2
46ZWARDOŃ Marcin 1465CROSSFIT ŁUKÓW & CROSSFIT SIEDLCEOpen Mężczyzn44M 9812:0000:57:49.7500:57:49.75+00:16:289:386.2
47LASKOWSKI Tomasz 427HUSARIA RACE TEAMOpen Mężczyzn45M 9909:3000:57:50.7500:57:50.75+00:16:299:386.2
48PLAZALSKI Łukasz 908WŚCIEKLIZNA GG+Open Mężczyzn46M 10010:3000:58:02.6500:58:02.65+00:16:419:406.2
49GOLEC Rafał 1074CROSSFIT ŁUKÓW & CROSSFIT SIEDLCEOpen Mężczyzn47M 10111:0000:58:04.9000:58:04.90+00:16:439:406.2
50GAWĘDA Włodzimierz 594Open Masters Mężczyzn3M 10209:4500:58:07.8000:58:07.80+00:16:469:416.2
51NESTEROWICZ Tomasz 1496RYCKI EDAM JAKOŚĆ TRADYCJAOpen Mężczyzn48M 10312:0000:58:11.2500:58:11.25+00:16:509:416.2
52BAĆMAGA Tomek 1319Open Mężczyzn49M 10511:3000:58:31.6000:58:31.60+00:17:109:456.2
53JĘDRYCH Michał 1285LUDKI JAGÓDKIOpen Mężczyzn50M 10711:3000:58:55.4500:58:55.45+00:17:349:496.1
54LEWIKOWSKI Marcin 998SPEEDSTERSOpen Mężczyzn51M 10810:4500:58:59.6500:58:59.65+00:17:389:496.1
55ZAJKO Michał 762CROSSFIT Z16Open Mężczyzn52M 10910:1500:59:04.3000:59:04.30+00:17:439:506.1
56CZERNIAK Maciej 895NIEZNISZCZALNI PARTYZANCIOpen Mężczyzn53M 11010:3000:59:04.3000:59:04.30+00:17:439:506.1
57DŁUBAK Adrian 259Open Mężczyzn54M 11109:0000:59:11.0500:59:11.05+00:17:499:516.1
58SOCHA Maciej 1441Open Mężczyzn55M 11511:4500:59:18.7500:59:18.75+00:17:579:536.1
59BRYZEK Konrad 1218Open Mężczyzn56M 11611:1500:59:21.2000:59:21.20+00:18:009:536.1
60GOŁOMBEK Marek 523#SPARTANRACETRAININGGROUPTARNOWSKIEGÓRYOpen Masters Mężczyzn4M 11709:0000:59:22.8000:59:22.80+00:18:019:536.1
61BRZEZIŃSKI Kamil 1180HARPAGANY TEAMOpen Mężczyzn57M 11811:1500:59:23.5500:59:23.55+00:18:029:536.1
62KWASNIAK Łukasz 509Open Mężczyzn58M 11909:3000:59:25.9500:59:25.95+00:18:049:546.1
63KWIETNIEWSKI Piotr 794MONKEYS' TEAMOpen Mężczyzn59M 12010:1500:59:30.4000:59:30.40+00:18:099:556.1
64KOWALEWSKI Mateusz 1076CROSSFIT ŁUKÓW & CROSSFIT SIEDLCEOpen Mężczyzn60M 12111:0000:59:36.9000:59:36.90+00:18:159:566
65STASIUK Arkadiusz 225HUSARIA RACE TEAMOpen Mężczyzn61M 12209:0000:59:56.4500:59:56.45+00:18:359:596
66GLEGOŁA Dominik 1416Open Mężczyzn62M 12411:4501:00:03.2501:00:03.25+00:18:4210:006
67KOŁODZIEJ Krystian 390Open Mężczyzn63M 12509:1501:00:03.2501:00:03.25+00:18:4210:006
68KRÓL Dariusz 1575Open Masters Mężczyzn5M 12611:4501:00:07.3501:00:07.35+00:18:4610:016
69ZAGAWA Mateusz 439ŁOWICZ TEAMOpen Mężczyzn64M 12709:3001:00:08.0001:00:08.00+00:18:4610:016
70KOSIŃSKI Jakub 773HUSARIA RACE TEAMOpen Mężczyzn65M 12810:1501:00:09.4501:00:09.45+00:18:4810:016
71PURWIN Tomasz 847Open Mężczyzn66M 12910:1501:00:18.2501:00:18.25+00:18:5710:036
72ARTYKIEWICZ Adrian 1507Open Mężczyzn67M 13012:0001:00:18.8501:00:18.85+00:18:5710:036
73ZACZEK Adam 412Open Mężczyzn68M 13109:1501:00:20.0501:00:20.05+00:18:5810:036
74ŁYSIK Piotr 722Open Mężczyzn69M 13310:0001:00:32.7001:00:32.70+00:19:1110:055.9
75GORCZYCA Rafal 386Open Mężczyzn70M 13409:1501:00:33.3501:00:33.35+00:19:1210:055.9
76ZAJĄC Paweł 972BLACK GAME TEAMOpen Mężczyzn71M 13510:4501:00:33.3501:00:33.35+00:19:1210:055.9
77STANCLIK Marcin 971BLACK GAME TEAMOpen Mężczyzn72M 13610:4501:00:33.4001:00:33.40+00:19:1210:055.9
78PASTERNAK Paweł 728Open Mężczyzn73M 13710:0001:00:36.0501:00:36.05+00:19:1410:065.9
79KORDEK Jarosław 1289MORSY SZCZYTNO #RESETOpen Masters Mężczyzn6M 13911:3001:00:40.1001:00:40.10+00:19:1810:065.9
80OCHNIO Andrzej 1082CROSSFIT ŁUKÓW & CROSSFIT SIEDLCEOpen Mężczyzn74M 14011:0001:00:43.8501:00:43.85+00:19:2210:075.9
81BOROŃ Zbigniew 377Open Masters Mężczyzn7M 14109:1501:00:45.0501:00:45.05+00:19:2310:075.9
82STACHYRA Radosław 1376HUSARIA RACE TEAMOpen Mężczyzn75M 14211:4501:00:46.3501:00:46.35+00:19:2510:075.9
83KURTA Dmitriy 1524Open Mężczyzn76M 14312:0001:00:48.6001:00:48.60+00:19:2710:085.9
84RYBACKI Błażej 1313TORPEDA RACE TEAMOpen Mężczyzn77M 14411:3001:00:49.5001:00:49.50+00:19:2810:085.9
85DWORAKOWSKI Kamil 770HUSARIA RACE TEAMOpen Mężczyzn78M 14609:0001:00:53.3501:00:53.35+00:19:3210:085.9
86MUROWANY Krzysztof 1593Open Mężczyzn79M 14811:4501:01:08.2001:01:08.20+00:19:4710:115.9
87NUŻYŃSKI Radosław 1311TORPEDA RACE TEAMOpen Mężczyzn80M 14911:3001:01:09.5001:01:09.50+00:19:4810:115.9
88GÓRNIAK Bartek 791MONKEYS' TEAMOpen Mężczyzn81M 15110:1501:01:12.3501:01:12.35+00:19:5110:125.9
89KVAPIL Stanislav 1490OCR RUNNERS OLOMOUCOpen Mężczyzn82M 15212:0001:01:13.0501:01:13.05+00:19:5110:125.9
90PODWYSOCKI Jacek 333HUSARIA RACE TEAMOpen Mężczyzn83M 15309:1501:01:14.6001:01:14.60+00:19:5310:125.9
91IWAN Rafał 1491PAINTBALL EXTREMEOpen Mężczyzn84M 15411:4501:01:14.8001:01:14.80+00:19:5310:125.9
92WIŚNIEWSKI Rafał 1574Open Mężczyzn85M 15511:4501:01:18.4501:01:18.45+00:19:5710:135.9
93KURDUBSKI Daniel 1181HARPAGANY TEAMOpen Mężczyzn86M 15711:1501:01:18.9501:01:18.95+00:19:5710:135.9
94MOLENDA Jarek 1529Open Mężczyzn87M 15812:0001:01:26.7001:01:26.70+00:20:0510:145.9
95TEJWAN Leszek 351SRTG WARSZAWAOpen Masters Mężczyzn8M 16009:1501:01:30.9501:01:30.95+00:20:0910:155.9
96POWAŻNY Marek 495XRUNNERSOpen Mężczyzn88M 16109:3001:01:31.4501:01:31.45+00:20:1010:155.9
97ZIÓŁKOWSKI Przemysław 801MONKEYS' TEAMOpen Mężczyzn89M 16210:1501:01:44.3501:01:44.35+00:20:2310:175.8
98CZAJKA Piotr 1367AGRESYWNE PLASTRY Open Mężczyzn90M 16311:4501:01:47.9501:01:47.95+00:20:2610:175.8
99IMIOLCZYK Roland 1368AGRESYWNE PLASTRY Open Masters Mężczyzn9M 16411:4501:01:48.2501:01:48.25+00:20:2710:185.8
100SZCZĘSNY Bartek 407Open Mężczyzn91M 16509:1501:01:49.7501:01:49.75+00:20:2810:185.8
101ŁUKASIK Łukasz 1079CROSSFIT ŁUKÓW & CROSSFIT SIEDLCEOpen Mężczyzn92M 16611:0001:01:51.4501:01:51.45+00:20:3010:185.8
102LESZKO Łukasz 250ZIGGI TRENUJEOpen Mężczyzn93M 16709:0001:01:52.8001:01:52.80+00:20:3110:185.8
103GÓRALCZYK Marcin 1223Open Mężczyzn94M 16811:1501:01:52.9001:01:52.90+00:20:3110:185.8
104FIJAŁKOWSKI Marcin 382Open Mężczyzn95M 17009:1501:01:59.5501:01:59.55+00:20:3810:195.8
105RYCHLEWSKI Krzysztof 1183HARPAGANY TEAMOpen Mężczyzn96M 17111:1501:02:00.1001:02:00.10+00:20:3810:205.8
106JARZYNOWSKI Lukasz 1028Open Mężczyzn97M 17210:4501:02:00.3501:02:00.35+00:20:3910:205.8
107DEC Marek 816Open Mężczyzn98M 17310:1501:02:00.8001:02:00.80+00:20:3910:205.8
108BITTNER Filip 1510Open Mężczyzn99M 17711:4501:02:16.0001:02:16.00+00:20:5410:225.8
109CZUB Marcin 258Open Mężczyzn100M 17909:0001:02:24.9001:02:24.90+00:21:0310:245.8
110BIELSKI Piotr 1215Open Mężczyzn101M 18011:1501:02:26.5001:02:26.50+00:21:0510:245.8
111ULANOWSKI Karol 630Open Mężczyzn102M 18109:4501:02:27.6501:02:27.65+00:21:0610:245.8
112JEZIORSKI Wiktor 271Open Mężczyzn103M 18309:0001:02:35.3501:02:35.35+00:21:1410:255.8
113PLURA Rafał 514Open Mężczyzn104M 18609:3001:02:42.2001:02:42.20+00:21:2110:275.7
114MAJEK Piotr 905VISITORSOpen Mężczyzn105M 18910:3001:03:02.6001:03:02.60+00:21:4110:305.7
115MIRECKI Maciej 1432Open Mężczyzn106M 19011:4501:03:10.1501:03:10.15+00:21:4810:315.7
116PAWELEC Marek 620Open Masters Mężczyzn10M 19109:4501:03:13.2001:03:13.20+00:21:5210:325.7
117FRANCKIEWICZ Arkadiusz 384Open Mężczyzn107M 19209:1501:03:23.6501:03:23.65+00:22:0210:335.7
118PIERZAK Przemysław 1438Open Mężczyzn108M 19411:4501:03:27.3001:03:27.30+00:22:0610:345.7
119JERMAKOWICZ Bartlomiej 469ROWERZYŚCI WYKLĘCIOpen Mężczyzn109M 19509:3001:03:31.9501:03:31.95+00:22:1010:355.7
120ADAMCZYK Jacek 1017Open Masters Mężczyzn11M 19610:4501:03:35.3501:03:35.35+00:22:1410:355.7
121KROL Marcin 759CROSSFIT Z16Open Mężczyzn110M 19710:1501:03:35.5501:03:35.55+00:22:1410:355.7
122STANISŁAWSKI Fabian 1479HUSARIA RACE TEAMOpen Mężczyzn111M 19912:0001:03:39.3501:03:39.35+00:22:1810:365.7
123WILAMOWSKI Adam 896NIEZNISZCZALNI PARTYZANCIOpen Mężczyzn112M 20110:3001:03:54.4001:03:54.40+00:22:3310:395.6
124WIŚNIEWSKI Miłosz 897NIEZNISZCZALNI PARTYZANCIOpen Mężczyzn113M 20210:3001:03:55.0001:03:55.00+00:22:3310:395.6
125MAKOWSKI Lukasz 280Open Mężczyzn114M 20309:0001:03:55.2001:03:55.20+00:22:3410:395.6
126BODIS Peter 812Open Masters Mężczyzn12M 20410:1501:03:56.4001:03:56.40+00:22:3510:395.6
127BORECKI Marcin 1408Open Mężczyzn115M 20511:4501:04:00.2501:04:00.25+00:22:3910:405.6
128PŁOCHEĆ Jakub 1439Open Mężczyzn116M 20611:4501:04:02.9001:04:02.90+00:22:4110:405.6
129GĄSECKI Bartosz 1323Open Mężczyzn117M 20711:4501:04:08.7001:04:08.70+00:22:4710:415.6
130SPRADA Jakub 1566Open Mężczyzn118M 20911:4501:04:19.5001:04:19.50+00:22:5810:435.6
131NIEDZIAŁEK Tomasz 615Open Mężczyzn119M 21009:4501:04:20.1501:04:20.15+00:22:5810:435.6
132MUSIAŁ Konrad 1197RUNAWAYSOpen Mężczyzn120M 21111:1501:04:21.3501:04:21.35+00:23:0010:435.6
133RUSINEK Witosław 849Open Mężczyzn121M 21210:1501:04:37.2001:04:37.20+00:23:1610:465.6
134NOWAKOWSKI Maciej 618Open Mężczyzn122M 21309:4501:04:42.7001:04:42.70+00:23:2110:475.6
135KOWALCZYK Piotr 1478HUSARIA RACE TEAMOpen Mężczyzn123M 21412:0001:04:54.2001:04:54.20+00:23:3310:495.5
136KOWALIK Marcin 209HARDCORYOpen Mężczyzn124M 21509:0001:04:57.5001:04:57.50+00:23:3610:495.5
137 RAK Janusz 321HUSARIA RACE TEAMOpen Masters Mężczyzn13M 21609:1501:05:09.4001:05:09.40+00:23:4810:515.5
138OZGA Marcin 539HUSARIA RACE TEAMOpen Mężczyzn125M 21709:1501:05:09.5501:05:09.55+00:23:4810:515.5
139BYLER Michał 1322Open Mężczyzn126M 21811:3001:05:10.0001:05:10.00+00:23:4810:515.5
140MROSZCZYK Paweł 613Open Mężczyzn127M 21909:4501:05:13.5501:05:13.55+00:23:5210:525.5
141JEZIORAŃSKI Bartosz 204EKIPA HAIEROpen Masters Mężczyzn14M 22009:0001:05:13.6001:05:13.60+00:23:5210:525.5
142MAZUREK Mateusz 1337Open Mężczyzn128M 22111:4501:05:27.1001:05:27.10+00:24:0510:545.5
143WŁOCHYŃSKI Mikołaj 778HUSARIA RACE TEAMOpen Mężczyzn129M 22209:0001:05:29.2001:05:29.20+00:24:0810:545.5
144KRAMER Robert 827Open Mężczyzn130M 22310:1501:05:31.8001:05:31.80+00:24:1010:555.5
145WITEK Kamil 984HUSARIA RACE TEAMOpen Mężczyzn131M 22410:4501:05:35.3501:05:35.35+00:24:1410:555.5
146KURACH Stanisław 720Open Masters Mężczyzn15M 22510:0001:05:36.6001:05:36.60+00:24:1510:565.5
147CHŁAP Ireneusz 982HUSARIA RACE TEAMOpen Mężczyzn132M 22610:4501:05:42.0501:05:42.05+00:24:2010:575.5
148KOPEĆ Sebastian 1499SKILLS PAY BILLSOpen Mężczyzn133M 22710:1501:05:46.8001:05:46.80+00:24:2510:575.5
149NESTOROWICZ Adam 1152Open Mężczyzn134M 22811:1501:05:58.0001:05:58.00+00:24:3610:595.5
150MIKOŁAJCZAK Jan 395Open Mężczyzn135M 22909:1501:05:59.9501:05:59.95+00:24:3810:595.5
151CIEŚLAK Tomasz 1513Open Mężczyzn136M 23012:0001:06:06.5501:06:06.55+00:24:4511:015.4
152PAWŁOWICZ Roland 332HUSARIA RACE TEAMOpen Mężczyzn137M 23109:1501:06:08.4001:06:08.40+00:24:4711:015.4
153ZELL Jacek 960Open Masters Mężczyzn16M 23210:3001:06:10.8501:06:10.85+00:24:4911:015.4
154NOWAK Paweł 452NETIA SPEED 2Open Mężczyzn138M 23309:3001:06:10.9501:06:10.95+00:24:4911:015.4
155WIECHETEK Artur 353SRTG WARSZAWAOpen Mężczyzn139M 23409:1501:06:11.1501:06:11.15+00:24:4911:015.4
156BRZEZICKI Krzysztof 1219Open Mężczyzn140M 23611:1501:06:26.7501:06:26.75+00:25:0511:045.4
157WOŹNIAK Łukasz 1357Open Mężczyzn141M 23711:3001:06:33.2501:06:33.25+00:25:1211:055.4
158PAPROTA Filip 286Open Mężczyzn142M 23809:0001:06:38.7501:06:38.75+00:25:1711:065.4
159CHOROŚ Michał 814Open Mężczyzn143M 23910:1501:06:41.2501:06:41.25+00:25:2011:065.4
160POLASZYK Radek 241RBE TEAMOpen Mężczyzn144M 24009:0001:06:42.1501:06:42.15+00:25:2011:075.4
161BOTOREK Damian 1511Open Mężczyzn145M 24212:0001:06:48.9501:06:48.95+00:25:2711:085.4
162FUS Kamil 934Open Mężczyzn146M 24311:0001:06:51.8001:06:51.80+00:25:3011:085.4
163SCHULZ Dawid 1598Open Mężczyzn147M 24411:4501:06:52.4001:06:52.40+00:25:3111:085.4
164MAZUREK Michał 1528Open Mężczyzn148M 24512:0001:06:57.3001:06:57.30+00:25:3611:095.4
165KUNYSZ Mateusz 216HUSARIA RACE TEAMOpen Mężczyzn149M 24609:0001:06:59.3001:06:59.30+00:25:3811:095.4
166BRODA Mateusz 481UNIMOGIOpen Mężczyzn150M 24709:3001:07:03.6501:07:03.65+00:25:4211:105.4
167POPIOŁEK Jacek 1497RYCKI EDAM JAKOŚĆ TRADYCJAOpen Mężczyzn151M 24812:0001:07:06.6501:07:06.65+00:25:4511:115.4
168KURACH Kacper 719Open Mężczyzn152M 24910:0001:07:07.4501:07:07.45+00:25:4611:115.4
169MARTUSZEWSKI Ryszard 1336Open Masters Mężczyzn17M 25011:3001:07:09.3501:07:09.35+00:25:4811:115.4
170BRODA Tomasz 482UNIMOGIOpen Mężczyzn153M 25109:3001:07:09.8501:07:09.85+00:25:4811:115.4
171LULIŃSKI Mateusz 831Open Mężczyzn154M 25210:1501:07:16.9001:07:16.90+00:25:5511:125.4
172KONIECZNY Jacek 1594Open Mężczyzn155M 25312:0001:07:23.0001:07:23.00+00:26:0111:135.3
173SZUKALSKI Maciej 1546Open Mężczyzn156M 25412:0001:07:24.5501:07:24.55+00:26:0311:145.3
174WUCZKO Dariusz 1261Open Mężczyzn157M 25511:1501:07:26.9501:07:26.95+00:26:0511:145.3
175KOPECKÝ Jakub 1489OCR RUNNERS OLOMOUCOpen Mężczyzn158M 25612:0001:07:28.6501:07:28.65+00:26:0711:145.3
176MAJCHERSKI Piotr 760CROSSFIT Z16Open Masters Mężczyzn18M 25710:1501:07:29.2001:07:29.20+00:26:0811:145.3
177SZCZEPAŃSKI Maciej 1445Open Mężczyzn159M 25811:4501:07:35.0501:07:35.05+00:26:1311:155.3
178BUSZTA Maciej 1020Open Mężczyzn160M 25910:4501:07:38.8501:07:38.85+00:26:1711:165.3
179LELOCH Michał 218HUSARIA RACE TEAMOpen Mężczyzn161M 26009:0001:07:40.5501:07:40.55+00:26:1911:165.3
180KARCZ Jacek 603Open Mężczyzn162M 26109:4501:07:43.1501:07:43.15+00:26:2111:175.3
181CZARNIECKI Jakub 234NO LIMIT TEAMOpen Mężczyzn163M 26209:0001:07:43.4501:07:43.45+00:26:2211:175.3
182KISIEL Artur 502Open Mężczyzn164M 26409:3001:07:45.7001:07:45.70+00:26:2411:175.3
183CHODNIEWICZ Paweł 700Open Mężczyzn165M 26510:0001:07:47.5501:07:47.55+00:26:2611:175.3
184KONOPKA Paweł 505Open Mężczyzn166M 26609:3001:07:47.6001:07:47.60+00:26:2611:175.3
185SURMA Szymon 483UNIMOGIOpen Mężczyzn167M 26709:3001:07:51.1501:07:51.15+00:26:2911:185.3
186SZCZECH Szymon 752ALKO NINJAOpen Mężczyzn168M 26810:1501:07:56.9501:07:56.95+00:26:3511:195.3
187SZYMAŃSKI Lew 853Open Mężczyzn169M 26910:1501:08:04.0501:08:04.05+00:26:4211:205.3
188SKOCZEK Marcin 688WATAHAOpen Mężczyzn170M 27010:0001:08:08.8501:08:08.85+00:26:4711:215.3
189WOŹNIAK Daniel 1083CROSSFIT ŁUKÓW & CROSSFIT SIEDLCEOpen Mężczyzn171M 27111:0001:08:09.5001:08:09.50+00:26:4811:215.3
190KALBARCZYK Bartosz 549MASADA KRAV MAGAOpen Mężczyzn172M 27209:4501:08:17.8001:08:17.80+00:26:5611:225.3
191AHMAD Michał 1073CROSSFIT ŁUKÓW & CROSSFIT SIEDLCEOpen Mężczyzn173M 27311:0001:08:23.6001:08:23.60+00:27:0211:235.3
192LESICKI Konrad 942Open Mężczyzn174M 27410:3001:08:24.2501:08:24.25+00:27:0311:245.3
193JACHIMOWSKI Michał 940Open Mężczyzn175M 27510:3001:08:26.7001:08:26.70+00:27:0511:245.3
194MOLENDA Maciek 612Open Mężczyzn176M 27609:4501:08:26.9501:08:26.95+00:27:0511:245.3
195STANIASZEK Radosław 1473DRIM TIMOpen Mężczyzn177M 27812:0001:08:31.6501:08:31.65+00:27:1011:255.3
196GMUR Tomasz 935Open Masters Mężczyzn19M 27910:3001:08:33.9001:08:33.90+00:27:1211:255.3
197NOWACKI Marian 617Open Masters Mężczyzn20M 28009:4501:08:34.3001:08:34.30+00:27:1311:255.3
198BRZOZOWSKI Tomasz 588Open Masters Mężczyzn21M 28109:4501:08:36.7501:08:36.75+00:27:1511:265.2
199WIŚNIEWSKI Krzysztof 348SOCIOS SILESIAOpen Mężczyzn178M 28209:0001:08:43.6001:08:43.60+00:27:2211:275.2
200KOWALCZYK Piotr 276Open Mężczyzn179M 28309:0001:08:44.9001:08:44.90+00:27:2311:275.2
201SZCZEPANOWSKI Kamil 628Open Mężczyzn180M 28409:4501:08:51.5501:08:51.55+00:27:3011:285.2
202SULKOWSKI Dominik 1443Open Mężczyzn181M 28511:4501:08:54.5501:08:54.55+00:27:3311:295.2
203KLUCZYŃSKI Adam 273Open Mężczyzn182M 28609:0001:09:00.1501:09:00.15+00:27:3811:305.2
204DYMKOWSKI Damian 705Open Mężczyzn183M 28710:0001:09:00.5501:09:00.55+00:27:3911:305.2
205KOSTYRA Łukasz 903VISITORSOpen Mężczyzn184M 28810:3001:09:03.4501:09:03.45+00:27:4211:305.2
206SZYMAŃSKI Michał 1255Open Mężczyzn185M 28911:1501:09:16.6501:09:16.65+00:27:5511:325.2
207PISZCZAŁKA Tomasz 1481KP PSP TRZEBNICAOpen Mężczyzn186M 29012:0001:09:17.6001:09:17.60+00:27:5611:325.2
208KACZMAREK Michal 1029Open Mężczyzn187M 29110:4501:09:19.4001:09:19.40+00:27:5811:335.2
209ADAMCZYK Kamil 1562Open Mężczyzn188M 29210:4501:09:19.8501:09:19.85+00:27:5811:335.2
210LALEWICZ Robert 217HUSARIA RACE TEAMOpen Masters Mężczyzn22M 29309:0001:09:26.5001:09:26.50+00:28:0511:345.2
211LUSZTAK Szymon 1213ZRYTE CZOSNKI Open Mężczyzn189M 29411:1501:09:28.1501:09:28.15+00:28:0611:345.2
212SAJDUDA Łukasz 1369AVE 101Open Mężczyzn190M 29511:4501:09:30.1001:09:30.10+00:28:0811:355.2
213DĄBROWSKI Stefan 1212ZRYTE CZOSNKI Open Mężczyzn191M 29611:1501:09:30.3501:09:30.35+00:28:0911:355.2
214KRYSIAK Marek 1429Open Masters Mężczyzn23M 29711:4501:09:31.2501:09:31.25+00:28:1011:355.2
215MYKYTA Tomasz 614Open Mężczyzn192M 29809:4501:09:31.6501:09:31.65+00:28:1011:355.2
216FORNALSKI Irek 709Open Mężczyzn193M 29910:0001:09:32.9001:09:32.90+00:28:1111:355.2
217ZAJKO Rafał 1360Open Mężczyzn194M 30011:3001:09:35.3501:09:35.35+00:28:1411:355.2
218KRUK Kamil 718Open Mężczyzn195M 30110:0001:09:35.9001:09:35.90+00:28:1411:355.2
219KRASOWSKI Mariusz 804OUTDOOR TRAININGOpen Masters Mężczyzn24M 30210:1501:09:36.3501:09:36.35+00:28:1511:365.2
220WRÓBLEWSKI Damian 1370AVE 101Open Mężczyzn196M 30311:4501:09:36.7501:09:36.75+00:28:1511:365.2
221KRUK Jakub 717Open Mężczyzn197M 30410:0001:09:37.5001:09:37.50+00:28:1611:365.2
222ADAMCZYK Łukasz 480SPARTAN SGX WARSAWOpen Mężczyzn198M 30509:1501:09:40.2501:09:40.25+00:28:1911:365.2
223DZIUBAK Piotrek 707Open Mężczyzn199M 30610:0001:09:41.7001:09:41.70+00:28:2011:365.2
224GRĘŹLIKOWSKI Jakub 710Open Mężczyzn200M 30710:0001:09:42.3001:09:42.30+00:28:2111:375.2
225PŁATKOWSKI Sylwester 1293PŁATKIOpen Mężczyzn201M 30811:3001:09:42.5001:09:42.50+00:28:2111:375.2
226PŁATKOWSKI Jacek 1292PŁATKIOpen Mężczyzn202M 30911:3001:09:42.7501:09:42.75+00:28:2111:375.2
227RAWA Artur 1208Z INNEJ PLANETYOpen Mężczyzn203M 31011:1501:09:43.6501:09:43.65+00:28:2211:375.2
228BEDNAREK Remigiusz 484VERISTRONGOpen Mężczyzn204M 31109:3001:09:43.7001:09:43.70+00:28:2211:375.2
229FIRST Tomasz 708Open Mężczyzn205M 31209:4501:09:44.0001:09:44.00+00:28:2211:375.2
230JACHIM Adam 1519Open Mężczyzn206M 31312:0001:09:45.1001:09:45.10+00:28:2311:375.2
231PŁATKOWSKI Damian 1291PŁATKIOpen Mężczyzn207M 31411:3001:09:45.4501:09:45.45+00:28:2411:375.2
232BŁANIK Michał 811Open Mężczyzn208M 31510:1501:09:46.5001:09:46.50+00:28:2511:375.2
233KUBIENIEC Łukasz 828Open Mężczyzn209M 31610:1501:09:46.5501:09:46.55+00:28:2511:375.2
234CWYNAR Tomasz 681WATAHAOpen Mężczyzn210M 31710:0001:09:46.6501:09:46.65+00:28:2511:375.2
235MACHLAŃSKI Łukasz 832Open Mężczyzn211M 31810:1501:09:47.0501:09:47.05+00:28:2511:375.2
236BIAŁYŃSKI Mateusz 1407Open Mężczyzn212M 31911:4501:09:54.5001:09:54.50+00:28:3311:395.2
237DZIUDZIEL Maciej 1411Open Mężczyzn213M 32011:4501:09:58.8501:09:58.85+00:28:3711:395.1
238MACIAK Damian 1041Open Mężczyzn214M 32110:4501:10:01.4501:10:01.45+00:28:4011:405.1
239GORZELAK Kamil 1417Open Mężczyzn215M 32211:4501:10:06.8501:10:06.85+00:28:4511:415.1
240PALISZEWSKI Paweł 1048Open Mężczyzn216M 32310:4501:10:07.4001:10:07.40+00:28:4611:415.1
241JABŁOŃSKI Konrad 819Open Mężczyzn217M 32410:4501:10:11.4501:10:11.45+00:28:5011:415.1
242TIAHNYBOK Paweł 19DZIADY OCROpen Masters Mężczyzn25M 32508:3001:10:17.3001:10:17.30+00:28:5611:425.1
243ZALEWSKI Michał 1395KREJZOLE SPOT STOLYCYOpen Mężczyzn218M 32611:4501:10:17.7001:10:17.70+00:28:5611:425.1
244CZEPANIK Patryk 1131Open Mężczyzn219M 32711:0001:10:21.0001:10:21.00+00:28:5911:435.1
245PRUS Maciej 786ŁOKIEĆ ALKANTARAOpen Mężczyzn220M 32810:1501:10:21.0501:10:21.05+00:28:5911:435.1
246HUZIOR Jakub 208GRH 101 AIRBORNEOpen Mężczyzn221M 32909:0001:10:22.0501:10:22.05+00:29:0011:435.1
247BIEGANSKI Bogumil 252Open Mężczyzn222M 33009:0001:10:22.6501:10:22.65+00:29:0111:435.1
248RAWSKI Artur 1051Open Mężczyzn223M 33110:1501:10:27.6501:10:27.65+00:29:0611:445.1
249ORYBKIEWICZ Marcin 1046Open Mężczyzn224M 33210:1501:10:27.7501:10:27.75+00:29:0611:445.1
250WINIAREK Marcin 855Open Mężczyzn225M 33310:1501:10:28.1501:10:28.15+00:29:0611:445.1
251DODA Filip 817Open Mężczyzn226M 33410:1501:10:28.3501:10:28.35+00:29:0711:445.1
252BAJZERT Filip 1320Open Masters Mężczyzn26M 33511:3001:10:30.8001:10:30.80+00:29:0911:455.1
253BURCZAK Karol 1512Open Mężczyzn227M 33612:0001:10:35.2501:10:35.25+00:29:1411:455.1
254SULEWSKI Piotr 405Open Mężczyzn228M 33710:0001:10:36.6501:10:36.65+00:29:1511:465.1
255ROLA Rafał 515Open Mężczyzn229M 33809:3001:10:36.8001:10:36.80+00:29:1511:465.1
256MITOSEK Paweł 466POWER TRAININGOpen Mężczyzn230M 33909:3001:10:37.4501:10:37.45+00:29:1611:465.1
257MATUSIAK Konrad Piotr 1015ZRYTE CZOSNKIOpen Mężczyzn231M 34010:4501:10:39.0001:10:39.00+00:29:1711:465.1
258KUREK Adam 882IQ BUDOWNICTWO SQUADOpen Mężczyzn232M 34210:3001:10:44.7501:10:44.75+00:29:2311:475.1
259SZYBOWSKI Adam 1447Open Masters Mężczyzn27M 34311:4501:10:48.4501:10:48.45+00:29:2711:485.1
260OSIŃSKI Krzysztof 1533Open Mężczyzn233M 34412:0001:10:49.7501:10:49.75+00:29:2811:485.1
261JEŻYCKI Orest 769HAYABUSA PIOTRKÓW Open Mężczyzn234M 34510:1501:10:54.8501:10:54.85+00:29:3311:495.1
262FABISIAK Paweł 1207Z INNEJ PLANETYOpen Mężczyzn235M 34611:1501:10:56.5001:10:56.50+00:29:3511:495.1
263RAKOWSKI Patryk 848Open Mężczyzn236M 34710:1501:10:57.6001:10:57.60+00:29:3611:495.1
264ZIENTEK Jakub 1402SYFYR SYFYROpen Mężczyzn237M 34811:4501:11:00.1001:11:00.10+00:29:3811:505.1
265GĄSIOROWSKI Dariusz 1136Open Mężczyzn238M 34911:0001:11:05.2001:11:05.20+00:29:4411:505.1
266STOBIECKI Tomasz 1016ZRYTE CZOSNKIOpen Mężczyzn239M 35010:4501:11:05.5501:11:05.55+00:29:4411:505.1
267ŚWIDERSKI Mateusz 137Open Mężczyzn240M 35112:0001:11:07.9501:11:07.95+00:29:4611:515.1
268KOKOWSKI Mariusz 662PIĘKNI I BESTIEOpen Mężczyzn241M 35210:0001:11:08.9501:11:08.95+00:29:4711:515.1
269WIELĄDEK Arkadiusz 854Open Mężczyzn242M 35310:1501:11:09.2001:11:09.20+00:29:4811:515.1
270BURBUL Przemysław 498Open Mężczyzn243M 35409:3001:11:09.6501:11:09.65+00:29:4811:515.1
271WLODARCZYK Bartosz 428HUSARIA RACE TEAMOpen Mężczyzn244M 35509:3001:11:10.8001:11:10.80+00:29:4911:515.1
272LEMPKOWSKI Piotr 1401SYFYR SYFYROpen Mężczyzn245M 35611:4501:11:11.0501:11:11.05+00:29:4911:515.1
273BIAŁEK Marcin 586Open Mężczyzn246M 35709:4501:11:13.1501:11:13.15+00:29:5111:525.1
274WASYLIEW Wojtek 975CROSSFIT Z16Open Mężczyzn247M 35810:4501:11:16.1501:11:16.15+00:29:5411:525.1
275JACHIM Paweł 1520Open Mężczyzn248M 35912:0001:11:16.3501:11:16.35+00:29:5511:525.1
276GRZECHOWIAK Karol 711Open Mężczyzn249M 36010:0001:11:17.8501:11:17.85+00:29:5611:525.1
277CIEŚLIK Rafał 1129Open Mężczyzn250M 36111:0001:11:20.6501:11:20.65+00:29:5911:535
278PIETRZAK Wojciech 1537Open Mężczyzn251M 36212:0001:11:22.0501:11:22.05+00:30:0011:535
279KRYCZKA Krzysztof 1034Open Mężczyzn252M 36311:0001:11:22.0501:11:22.05+00:30:0011:535
280KARYKOWSKI Michał 1477HUSARIA RACE TEAMOpen Mężczyzn253M 36412:0001:11:22.9501:11:22.95+00:30:0111:535
281TOMASZEWSKI Krzysztof 1480HUSARIA RACE TEAMOpen Mężczyzn254M 36512:0001:11:22.9501:11:22.95+00:30:0111:535
282ADAMCZYK Jakub 251Open Mężczyzn255M 36609:0001:11:27.2501:11:27.25+00:30:0611:545
283WILCZYŃSKI Paweł 632Open Mężczyzn256M 36709:4501:11:29.4501:11:29.45+00:30:0811:545
284ZABIELSKI Jaroslaw 1084CROSSFIT ŁUKÓW & CROSSFIT SIEDLCEOpen Masters Mężczyzn28M 36811:0001:11:33.4001:11:33.40+00:30:1211:555
285HAŁAJKO Adam 937Open Mężczyzn257M 36910:3001:11:35.8001:11:35.80+00:30:1411:555
286KARLIŃSKI Paweł 1227Open Masters Mężczyzn29M 37011:4501:11:36.9001:11:36.90+00:30:1511:565
287KRAWCZYK Sebastian 200BRAVEHARTS LEGIONOWOOpen Mężczyzn258M 37109:0001:11:38.0501:11:38.05+00:30:1611:565
288KRASUSKI Piotr 1077CROSSFIT ŁUKÓW & CROSSFIT SIEDLCEOpen Mężczyzn259M 37211:0001:11:40.6501:11:40.65+00:30:1911:565
289DRABAREK Jakub 682WATAHAOpen Mężczyzn260M 37310:0001:11:41.6501:11:41.65+00:30:2011:565
290KRZYCKI Rafał 1234Open Mężczyzn261M 37411:1501:11:45.8501:11:45.85+00:30:2411:575
291KWIATKOWSKI Bartosz 1235Open Mężczyzn262M 37511:1501:11:46.6001:11:46.60+00:30:2511:575
292GORGIEL Krzysztof 1324Open Mężczyzn263M 37611:3001:11:49.2501:11:49.25+00:30:2811:585
293PASTUSIAK Jarosław 1437Open Mężczyzn264M 37711:4501:11:54.7001:11:54.70+00:30:3311:595
294JABŁOŃSKI Wiesław 1421Open Mężczyzn265M 37811:4501:11:57.1501:11:57.15+00:30:3511:595
295WOŹNICA Rafał 634Open Mężczyzn266M 37909:4501:11:58.7001:11:58.70+00:30:3711:595
296KACZMARSKI Piotr 1570Open Mężczyzn267M 38011:4501:12:01.3501:12:01.35+00:30:4012:005
297FANDREJEWSKI Łukasz 1412Open Mężczyzn268M 38111:4501:12:01.9501:12:01.95+00:30:4012:005
298ZAJKOWSKI Mariusz 666POWER TRAININGOpen Mężczyzn269M 38210:0001:12:07.0501:12:07.05+00:30:4512:015
299BOBER Jurek 876HUSARIA RACE TEAMOpen Mężczyzn270M 38310:3001:12:10.6501:12:10.65+00:30:4912:015
300LIPIŃSKI Krzysztof 1462BRAVEHEARTS LEGIONOWOOpen Mężczyzn271M 38412:0001:12:14.9001:12:14.90+00:30:5312:025
301MIKUŚKIEWICZ Michał 1147Open Mężczyzn272M 38511:0001:12:16.2001:12:16.20+00:30:5512:025
302ZYCH Kamil 1457Open Mężczyzn273M 38611:4501:12:16.6001:12:16.60+00:30:5512:025
303HUDASZEK Zbigniew 1403UNO MÁS?Open Mężczyzn274M 38711:4501:12:19.2501:12:19.25+00:30:5812:035
304RÓG Sebastian 1440Open Mężczyzn275M 38811:4501:12:20.2001:12:20.20+00:30:5912:035
305TARNACKI Rafał 1056Open Mężczyzn276M 38910:4501:12:29.5501:12:29.55+00:31:0812:045
306JAKUBASZEK Krzysztof 1143Open Mężczyzn277M 39011:0001:12:37.3001:12:37.30+00:31:1612:065
307HAŁAJKO Piotr 938Open Mężczyzn278M 39110:3001:12:37.8501:12:37.85+00:31:1612:065
308MAJCHROWSKI Damian 1502THE WINNERSOpen Mężczyzn279M 39212:0001:12:39.4501:12:39.45+00:31:1812:065
309KRZYCZKA Krzysztof 125Open Mężczyzn280M 39310:4501:12:43.4001:12:43.40+00:31:2212:075
310WICHEREK Mateusz 1058Open Mężczyzn281M 39410:4501:12:43.6501:12:43.65+00:31:2212:075
311PODOLAK Rafal 622Open Mężczyzn282M 39510:1501:12:47.8501:12:47.85+00:31:2612:074.9
312PAWŁOWSKI Piotr 950Open Mężczyzn283M 39610:3001:12:48.3501:12:48.35+00:31:2712:084.9
313KUCZYŃSKI Paweł 1459BIGYELLOWFOOT ADVENTURE TEAMOpen Mężczyzn284M 39710:1501:12:49.1501:12:49.15+00:31:2712:084.9
314NOWICKI Bartosz 726Open Mężczyzn285M 39810:0001:12:53.2501:12:53.25+00:31:3212:084.9
315KARWOWSKI Michał 431KGN Open Mężczyzn286M 39909:3001:12:53.7501:12:53.75+00:31:3212:084.9
316MĘZIŃSKI Pawel 1339Open Masters Mężczyzn30M 40011:3001:12:59.5001:12:59.50+00:31:3812:094.9
317SWACZYŃSKI Krzysztof 1545Open Mężczyzn287M 40112:0001:13:00.5501:13:00.55+00:31:3912:104.9
318ZYCH Michal 1555Open Mężczyzn288M 40212:0001:13:01.6001:13:01.60+00:31:4012:104.9
319MOLSKI Karol 1150Open Mężczyzn289M 40311:0001:13:02.5001:13:02.50+00:31:4112:104.9
320MALICKI Adam 1493RMF4RT OCROpen Mężczyzn290M 40412:0001:13:06.6001:13:06.60+00:31:4512:114.9
321CHMIELEWSKI Józef 255Open Mężczyzn291M 40509:0001:13:07.0501:13:07.05+00:31:4512:114.9
322KASKA Mateusz 1031Open Mężczyzn292M 40610:4501:13:08.3501:13:08.35+00:31:4712:114.9
323CHMIELEWSKI Marcin 256Open Mężczyzn293M 40709:0001:13:09.0001:13:09.00+00:31:4712:114.9
324MACIEJEWSKI Jan 611Open Mężczyzn294M 40909:4501:13:15.5501:13:15.55+00:31:5412:124.9
325DOBRZYŃSKI Sebastian 1132Open Mężczyzn295M 41011:0001:13:25.1501:13:25.15+00:32:0312:144.9
326OLIINYK Nazar 1579Open Mężczyzn296M 41112:0001:13:28.9001:13:28.90+00:32:0712:144.9
327GILEWICZ Krzysztof 661OUTDOOR TRAININGOpen Masters Mężczyzn31M 41210:0001:13:30.1501:13:30.15+00:32:0812:154.9
328JANUSZ Paweł 270Open Mężczyzn297M 41309:0001:13:30.5501:13:30.55+00:32:0912:154.9
329JĘDRZEJCZYK Michał 1425Open Mężczyzn298M 41411:4501:13:37.1001:13:37.10+00:32:1512:164.9
330JANOWSKI Damian 1422Open Mężczyzn299M 41511:4501:13:38.3501:13:38.35+00:32:1712:164.9
331KORSAK Mateusz 1174DELOITTE ADVENTURE TEAMOpen Mężczyzn300M 41611:1501:13:43.1501:13:43.15+00:32:2112:174.9
332WĘGRZYNOWSKI Damian 1159Open Mężczyzn301M 41711:0001:13:44.5501:13:44.55+00:32:2312:174.9
333KALLAS Maciej 1030Open Mężczyzn302M 41810:4501:13:45.7001:13:45.70+00:32:2412:174.9
334ROSOCHACKI Marcin 912WŚCIEKLIZNA GG+Open Mężczyzn303M 41910:3001:13:46.2001:13:46.20+00:32:2512:174.9
335OWCZAREK Adam 1153Open Mężczyzn304M 42011:0001:13:48.9501:13:48.95+00:32:2712:184.9
336KNOP Marcin 1095LEMON TEAMOpen Mężczyzn305M 42111:0001:13:50.7501:13:50.75+00:32:2912:184.9
337SĄDEJ Marcin 1298STALOWE DZIKIOpen Mężczyzn306M 42211:3001:13:52.2001:13:52.20+00:32:3112:184.9
338BOGACKI Adrian 1216Open Mężczyzn307M 42311:1501:13:52.6001:13:52.60+00:32:3112:184.9
339KOWALSKI Damian 1233Open Mężczyzn308M 42411:1501:13:54.0001:13:54.00+00:32:3212:194.9
340NAJDEREK Michał 1434Open Mężczyzn309M 42511:4501:13:55.2001:13:55.20+00:32:3412:194.9
341MĘZIŃSKI Mariusz 1338Open Masters Mężczyzn32M 42611:3001:13:56.1001:13:56.10+00:32:3412:194.9
342LANGOWSKI Marcin 830Open Mężczyzn310M 42710:1501:13:57.4501:13:57.45+00:32:3612:194.9
343PACEK Maciej 489VERISTRONGOpen Mężczyzn311M 42809:3001:14:04.8001:14:04.80+00:32:4312:204.9
344PACZESNY Maciej 1436Open Mężczyzn312M 42911:4501:14:05.2501:14:05.25+00:32:4412:204.9
345IWAŃSKI Jacek 1224Open Masters Mężczyzn33M 43011:1501:14:07.4001:14:07.40+00:32:4612:214.9
346CIEŚLA Krzysztof 1022Open Mężczyzn313M 43110:4501:14:08.4501:14:08.45+00:32:4712:214.9
347ŁODYGOWSKI Wojciech 974CHECK ENGINEOpen Mężczyzn314M 43210:4501:14:14.5001:14:14.50+00:32:5312:224.8
348GAŁĘZIEWSKI Marcin 1414Open Mężczyzn315M 43311:4501:14:16.1501:14:16.15+00:32:5412:224.8
349BORKOWSKI Artur 1019Open Mężczyzn316M 43410:4501:14:16.5001:14:16.50+00:32:5512:224.8
350GADOMSKI Tomasz 1413Open Mężczyzn317M 43511:4501:14:16.7501:14:16.75+00:32:5512:224.8
351KRZYŻANOWSKI Julian 604Open Mężczyzn318M 43609:4501:14:17.0501:14:17.05+00:32:5512:224.8
352NOWAK Piotr 1242Open Mężczyzn319M 43711:1501:14:19.5001:14:19.50+00:32:5812:234.8
353KONIECZNY Jacek 124Open Mężczyzn320M 43811:4501:14:20.6001:14:20.60+00:32:5912:234.8
354JANOWSKI Michał 1423Open Mężczyzn321M 43911:4501:14:21.0501:14:21.05+00:32:5912:234.8
355PIGIEL Tomasz 621Open Mężczyzn322M 44009:4501:14:25.2501:14:25.25+00:33:0412:244.8
356WOJTCZUK Daniel 1014Z GAZEMOpen Mężczyzn323M 44110:4501:14:27.5501:14:27.55+00:33:0612:244.8
357DOROSZ Mikołaj 906WŚCIEKLIZNA GG+Open Masters Mężczyzn34M 44210:3001:14:30.4501:14:30.45+00:33:0912:254.8
358RYDZEWSKI Adam 1011Z GAZEMOpen Mężczyzn324M 44310:4501:14:31.4001:14:31.40+00:33:1012:254.8
359JAKUBOWSKI Piotr 1326Open Mężczyzn325M 44411:3001:14:31.8501:14:31.85+00:33:1012:254.8
360BIALASIK Marcin 1509Open Mężczyzn326M 44512:0001:14:33.9501:14:33.95+00:33:1212:254.8
361MIKA Jarosław 471ROWERZYŚCI WYKLĘCIOpen Masters Mężczyzn35M 44609:3001:14:34.9501:14:34.95+00:33:1312:254.8
362PISTOR Tomasz 1341Open Mężczyzn327M 44711:3001:14:36.5501:14:36.55+00:33:1512:264.8
363SKÓRSKI Łukasz 740Open Mężczyzn328M 44810:0001:14:41.1001:14:41.10+00:33:1912:264.8
364LORENTOWICZ Michał 1335Open Mężczyzn329M 44911:3001:14:43.9001:14:43.90+00:33:2212:274.8
365MIKUCKI Daniel 126Open Mężczyzn330M 45011:1501:14:45.0501:14:45.05+00:33:2312:274.8
366ROWICKI Pawel 1251Open Mężczyzn331M 45112:0001:14:49.8001:14:49.80+00:33:2812:284.8
367ŁOSIOWSKI Maksymilian 1040Open Mężczyzn332M 45210:4501:14:51.4501:14:51.45+00:33:3012:284.8
368WILK Mariusz 335HUSARIA RACE TEAMOpen Mężczyzn333M 45309:1501:14:51.4501:14:51.45+00:33:3012:284.8
369KARBOWIAK Michal 714Open Mężczyzn334M 45410:0001:14:52.0001:14:52.00+00:33:3012:284.8
370NOWICKI Marcin 750ALKO NINJAOpen Mężczyzn335M 45610:1501:14:54.2501:14:54.25+00:33:3312:294.8
371RUTKOWSKI Roman 751ALKO NINJAOpen Mężczyzn336M 45710:1501:14:54.5001:14:54.50+00:33:3312:294.8
372ROZANSKI Marcin 1540Open Mężczyzn337M 45812:0001:14:55.4501:14:55.45+00:33:3412:294.8
373MAZUR Karol 1237Open Mężczyzn338M 45912:0001:14:58.3501:14:58.35+00:33:3712:294.8
374PAJĄK Marcin 1340Open Mężczyzn339M 46011:3001:15:00.3501:15:00.35+00:33:3912:304.8
375ROBAK Tomasz 1582Open Mężczyzn340M 46111:4501:15:02.9501:15:02.95+00:33:4112:304.8
376PAWŁOWSKI Łukasz 907WŚCIEKLIZNA GG+Open Mężczyzn341M 46210:3001:15:03.2501:15:03.25+00:33:4212:304.8
377SZAFRAN Jakub 1444Open Mężczyzn342M 46311:4501:15:06.6001:15:06.60+00:33:4512:314.8
378TOMCZYK Tomasz 248U MNIE DZIAŁAOpen Mężczyzn343M 46409:0001:15:12.1001:15:12.10+00:33:5012:324.8
379CENDROWSKI Krzysztof 1308TORPEDA RACE TEAMOpen Masters Mężczyzn36M 46511:3001:15:14.3501:15:14.35+00:33:5312:324.8
380STASZAK Mateusz 1252Open Mężczyzn344M 46611:1501:15:16.2501:15:16.25+00:33:5512:324.8
381WYSTAWSKI Karol 129Open Mężczyzn345M 46712:0001:15:22.1001:15:22.10+00:34:0012:334.8
382OLEJNICZAK Radosław 454NETIA SPEED 2Open Mężczyzn346M 46809:3001:15:24.9001:15:24.90+00:34:0312:344.8
383KOSTRZEWSKI Michał 1506VEGETA89Open Mężczyzn347M 46912:0001:13:47.2501:15:30.10+00:34:0812:184.9
384GŁOWACZ Grzegorz 983HUSARIA RACE TEAMOpen Masters Mężczyzn37M 47010:4501:15:30.2001:15:30.20+00:34:0912:354.8
385KOWALSKI Krzysztof 328HUSARIA RACE TEAMOpen Masters Mężczyzn38M 47109:1501:15:33.6001:15:33.60+00:34:1212:354.8
386TOMASZEWSKI Adrian 1258Open Mężczyzn348M 47211:1501:15:34.2501:15:34.25+00:34:1312:354.8
387KŁOS Cezary 1230Open Mężczyzn349M 47311:1501:15:36.1001:15:36.10+00:34:1412:364.8
388LEWANDOWSKI Jakub 1067ATOMOWE DORSZEOpen Mężczyzn350M 47411:0001:15:39.4501:15:39.45+00:34:1812:364.8
389LEWANDOWSKI Michał 1068ATOMOWE DORSZEOpen Mężczyzn351M 47511:0001:15:39.8501:15:39.85+00:34:1812:364.8
390ŁAWRENCZUK Paweł 787ŁOWICZ TEAMOpen Mężczyzn352M 47610:1501:15:40.2001:15:40.20+00:34:1912:364.8
391BIENIEK Krystian 1092KS MAKÓW BIEGA Open Mężczyzn353M 47711:3001:15:41.2501:15:41.25+00:34:2012:364.8
392NAJMAN Michal 1458ALPHA PROTOCOLOpen Mężczyzn354M 47812:0001:15:46.8501:15:46.85+00:34:2512:374.8
393KOWALSKI Łukasz 1523Open Mężczyzn355M 47912:0001:15:51.2501:15:51.25+00:34:3012:384.7
394RYDZEWSKI Mikołaj 1069ATOMOWE DORSZEOpen Mężczyzn356M 48011:0001:15:53.2501:15:53.25+00:34:3212:384.7
395MARKIEWICZ Miłosz 945Open Mężczyzn357M 48110:3001:15:54.4001:15:54.40+00:34:3312:394.7
396MITRUS Mateusz 450NETIA SPEED 2Open Mężczyzn358M 48209:3001:15:58.5501:15:58.55+00:34:3712:394.7
397UDRO Przemysław 1584Open Mężczyzn359M 48310:0001:16:00.9501:16:00.95+00:34:3912:404.7
398RUSINEK Adam 1010Z GAZEMOpen Mężczyzn360M 48410:4501:16:03.0501:16:03.05+00:34:4112:404.7
399TELEGA Michał 1448Open Mężczyzn361M 48511:4501:16:05.0001:16:05.00+00:34:4312:404.7
400LASKOWSKI Mateusz 1009Z GAZEMOpen Mężczyzn362M 48610:4501:16:05.2501:16:05.25+00:34:4412:404.7
401BAJDAŁA Robert 779JEDZIEMY Z TYM KOKSEMOpen Mężczyzn363M 48710:1501:16:07.7001:16:07.70+00:34:4612:414.7
402SALWA Jakub 1012Z GAZEMOpen Mężczyzn364M 48810:4501:16:09.4501:16:09.45+00:34:4812:414.7
403SZCZEPAŃSKI Jakub 1013Z GAZEMOpen Mężczyzn365M 48910:4501:16:11.6001:16:11.60+00:34:5012:414.7
404PACANOWSKI Olaf 1435Open Mężczyzn366M 49011:4501:16:14.5501:16:14.55+00:34:5312:424.7
405BORUCIŃSKI Jan 1008Z GAZEMOpen Mężczyzn367M 49110:4501:16:16.3501:16:16.35+00:34:5512:424.7
406BARAN Grzegorz 376Open Masters Mężczyzn39M 49209:1501:16:17.7501:16:17.75+00:34:5612:424.7
407BEDNAREK Michał 86Open Mężczyzn368M 49309:0001:16:20.1501:16:20.15+00:34:5812:434.7
408ZAREMBA Rafał 805OUTDOOR TRAININGOpen Mężczyzn369M 49410:1501:16:29.1501:16:29.15+00:35:0712:444.7
409JASTRZEBSKI Michal 1424Open Mężczyzn370M 49511:4501:16:29.4501:16:29.45+00:35:0812:444.7
410PEC Arkadiusz 398Open Masters Mężczyzn40M 49609:1501:16:30.9501:16:30.95+00:35:0912:454.7
411KRÓLICKI Konrad 371XRUNNERSOpen Mężczyzn371M 49709:1501:16:32.9501:16:32.95+00:35:1112:454.7
412BARTOSIK Tomek 1185LEGIA RUN CLUBOpen Mężczyzn372M 49811:1501:16:33.8501:16:33.85+00:35:1212:454.7
413ZAMĘCKI Bogumił 636Open Mężczyzn373M 49909:4501:16:35.9001:16:35.90+00:35:1412:454.7
414ZABOROWSKI Łukasz 1359Open Mężczyzn374M 50112:0001:16:37.5001:16:37.50+00:35:1612:464.7
415LALAK Dawid 1038Open Mężczyzn375M 50210:4501:16:39.0501:16:39.05+00:35:1712:464.7
416PAWŁOWSKI Tomasz 842Open Mężczyzn376M 50310:1501:16:45.3001:16:45.30+00:35:2412:474.7
417KARPINSKI Paweł 562OPENTEAMOpen Mężczyzn377M 50409:4501:16:46.1501:16:46.15+00:35:2412:474.7
418KŁOSOWSKI Robert 563OPENTEAMOpen Mężczyzn378M 50509:4501:16:46.2001:16:46.20+00:35:2512:474.7
419WĄSOWSKI Łukasz 528DZIKI Z BALCZEWAOpen Mężczyzn379M 50609:4501:16:46.7501:16:46.75+00:35:2512:474.7
420GRZEBUŁA Łukasz 1420Open Mężczyzn380M 50711:4501:16:54.8001:16:54.80+00:35:3312:494.7
421PEPLONSKI Adam 530FENIKSYOpen Mężczyzn381M 50809:4501:16:55.4501:16:55.45+00:35:3412:494.7
422MUSIAŁ Krzysztof 1530Open Mężczyzn382M 50912:0001:16:55.6501:16:55.65+00:35:3412:494.7
423BRACISZEWSKI Łukasz 529FENIKSYOpen Mężczyzn383M 51009:4501:16:56.4501:16:56.45+00:35:3512:494.7
424PIECYK Piotr 1535Open Mężczyzn384M 51112:0001:16:59.6501:16:59.65+00:35:3812:494.7
425JANECKI Kamil 1297ŚLĄSKI TAJFUN TEAMOpen Mężczyzn385M 51211:3001:16:59.7501:16:59.75+00:35:3812:494.7
426DUBIS Jaroslaw 704Open Masters Mężczyzn41M 51310:0001:17:00.2501:17:00.25+00:35:3912:504.7
427ZHYVANOV Mykola 1553Open Mężczyzn386M 51412:0001:17:02.0501:17:02.05+00:35:4012:504.7
428ROSZKOWSKI Krzysztof 1345Open Mężczyzn387M 51511:3001:17:04.6501:17:04.65+00:35:4312:504.7
429GUSZCZA Łukasz 936Open Mężczyzn388M 51610:3001:17:05.0001:17:05.00+00:35:4312:504.7
430JABŁOŃSKI Adrian 1325Open Mężczyzn389M 51711:3001:17:05.0501:17:05.05+00:35:4312:504.7
431PISIŃSKI Dominik 513Open Mężczyzn390M 51809:3001:17:05.4501:17:05.45+00:35:4412:504.7
432ORZOŁ Paweł 1272DŻENTELMENI NIE DO WZIĘCIAOpen Mężczyzn391M 51911:3001:17:07.7501:17:07.75+00:35:4612:514.7
433JARZYŃSKI Lesław 121Open Mężczyzn392M 52012:0001:17:11.9001:17:11.90+00:35:5012:514.7
434UZDOWSKI Daniel 227HUSARIA RACE TEAMOpen Mężczyzn393M 52109:0001:17:13.5501:17:13.55+00:35:5212:524.7
435FRANKOWSKI Marek 564PÓŁTORAMETROWE ŚWINIEOpen Mężczyzn394M 52209:4501:17:13.8001:17:13.80+00:35:5212:524.7
436ZIĘBA Krzysztof 557MASADA KRAV MAGAOpen Mężczyzn395M 52309:4501:17:14.1501:17:14.15+00:35:5212:524.7
437SADOWSKI Maciej 1273DŻENTELMENI NIE DO WZIĘCIAOpen Mężczyzn396M 52411:3001:17:14.3001:17:14.30+00:35:5312:524.7
438MARCHLEWICZ Dawid 944Open Mężczyzn397M 52510:3001:17:17.7001:17:17.70+00:35:5612:524.7
439GÓRALSKI Mateusz 640BANDA MARIANAOpen Mężczyzn398M 52610:0001:17:18.5501:17:18.55+00:35:5712:534.7
440GNIADEK Mariusz 639BANDA MARIANAOpen Mężczyzn399M 52710:0001:17:19.9501:17:19.95+00:35:5812:534.7
441MAJEWSKI Grzegorz 551MASADA KRAV MAGAOpen Mężczyzn400M 52809:4501:17:21.1501:17:21.15+00:35:5912:534.7
442KOLISETCKII Maksim 389Open Mężczyzn401M 52909:3001:17:22.1501:17:22.15+00:36:0012:534.7
443ZARZYCKI Tomasz 959Open Mężczyzn402M 53010:3001:17:25.0001:17:25.00+00:36:0312:544.7
444PASZT Adam 1288MKKK TEAMOpen Masters Mężczyzn42M 53111:3001:17:26.6501:17:26.65+00:36:0512:544.6
445KOZŁOWSKI Kacper 654CHŁOPAKI Z TEŚCIEMOpen Mężczyzn403M 53210:0001:17:38.9001:17:38.90+00:36:1712:564.6
446TYBON Łukasz 809WETERANIOpen Mężczyzn404M 53311:1501:17:39.4001:17:39.40+00:36:1812:564.6
447DRASZAWKA Łukasz 1187POWER TRAININGOpen Mężczyzn405M 53411:1501:17:40.5501:17:40.55+00:36:1912:564.6
448WYBRANIEC Mateusz 411Open Mężczyzn406M 53510:0001:17:42.2501:17:42.25+00:36:2112:574.6
449GŁAZ Jacek 325HUSARIA RACE TEAMOpen Masters Mężczyzn43M 53609:1501:17:43.6501:17:43.65+00:36:2212:574.6
450TRUSZCZYŃSKI Piotr 956Open Mężczyzn407M 53710:3001:17:46.4001:17:46.40+00:36:2512:574.6
451SIEK Adrian 655CHŁOPAKI Z TEŚCIEMOpen Mężczyzn408M 53810:0001:17:55.7001:17:55.70+00:36:3412:594.6
452RUDZKI Michał 761CROSSFIT Z16Open Mężczyzn409M 53910:1501:17:56.8001:17:56.80+00:36:3512:594.6
453WILCZEK Zbigniew 297Open Mężczyzn410M 54009:0001:17:58.8001:17:58.80+00:36:3712:594.6
454URYZAJ Mateusz 1274DŻENTELMENI NIE DO WZIĘCIAOpen Mężczyzn411M 54111:3001:18:02.9001:18:02.90+00:36:4113:004.6
455CZOKAJŁO Michał 212HUSARIA RACE TEAMOpen Mężczyzn412M 54209:0001:18:14.4001:18:14.40+00:36:5313:024.6
456WIATR Lukasz 245SP 210Open Mężczyzn413M 54309:0001:18:18.0501:18:18.05+00:36:5613:034.6
457BŁASZCZYK Piotr 587Open Mężczyzn414M 54409:4501:18:19.7501:18:19.75+00:36:5813:034.6
458RUDNIK Adam 244SP 210Open Masters Mężczyzn44M 54509:0001:18:20.2501:18:20.25+00:36:5913:034.6
459ZADROŻNY Piotr 203DRZWI DO MARZEŃOpen Mężczyzn415M 54609:0001:18:21.4501:18:21.45+00:37:0013:034.6
460WÓJCIK Michał 1101PEOpen Mężczyzn416M 54712:0001:18:23.9501:18:23.95+00:37:0213:034.6
461SIEJKA Mateusz 736Open Mężczyzn417M 54810:0001:18:26.9001:18:26.90+00:37:0513:044.6
462SOWA Arkadiusz 1000TE CHŁOPAKI NIE PŁACZĄOpen Mężczyzn418M 54910:4501:18:32.0501:18:32.05+00:37:1013:054.6
463STEMPKOWSKI Konrad 1001TE CHŁOPAKI NIE PŁACZĄOpen Mężczyzn419M 55010:4501:18:34.8001:18:34.80+00:37:1313:054.6
464ZACHARIASZ Marcin 695XRUNNERSOpen Mężczyzn420M 55110:0001:18:36.2501:18:36.25+00:37:1513:064.6
465RÓŻYCKI Konrad 290Open Masters Mężczyzn45M 55209:0001:18:43.4501:18:43.45+00:37:2213:074.6
466MĄDRZYK Daniel 1527Open Mężczyzn421M 55312:0001:18:44.4001:18:44.40+00:37:2313:074.6
467ŚWISTAK Piotr 109Open Mężczyzn422M 55408:3001:18:49.7001:18:49.70+00:37:2813:084.6
468BEDNARCZYK Mateusz 1127Open Mężczyzn423M 55511:0001:18:51.1501:18:51.15+00:37:2913:084.6
469ZIOMKOWSKI Rafał 637Open Mężczyzn424M 55609:4501:18:52.5501:18:52.55+00:37:3113:084.6
470KRZYSTECZKO Szymon 1330Open Mężczyzn425M 55711:3001:18:57.7501:18:57.75+00:37:3613:094.6
471MAZUR Robert 1042Open Mężczyzn426M 55810:4501:18:57.7501:18:57.75+00:37:3613:094.6
472MORDASIEWICZ Szymon 1004WŁÓCZYBIEGIOpen Masters Mężczyzn46M 55910:4501:19:00.2001:19:00.20+00:37:3913:104.6
473JAGIEŁŁO Grzegorz 1126ZIELONIOpen Mężczyzn427M 56011:0001:19:00.6001:19:00.60+00:37:3913:104.6
474OSIŃSKI Piotr 336I NEVER TURN BACKOpen Mężczyzn428M 56109:1501:19:09.6001:19:09.60+00:37:4813:114.5
475KUSNIERZ Jakub 1209ZIELONA IMPREZAOpen Mężczyzn429M 56211:1501:19:12.7501:19:12.75+00:37:5113:124.5
476WÓJCIK Mateusz 310CHŁOPAKI Z TEŚCIEMOpen Mężczyzn430M 56310:0001:19:12.8001:19:12.80+00:37:5113:124.5
477DYRSZKA Sebastian 1133Open Mężczyzn431M 56411:0001:19:13.6001:19:13.60+00:37:5213:124.5
478CHODOWSKI Łukasz 437LTGOpen Mężczyzn432M 56509:3001:19:15.1001:19:15.10+00:37:5313:124.5
479DŁUGOSZ Daniel 379Open Mężczyzn433M 56609:1501:19:17.8501:19:17.85+00:37:5613:124.5
480STASIAK Konrad 294Open Mężczyzn434M 56809:0001:19:19.8001:19:19.80+00:37:5813:134.5
481WIŚNIEWSKI Lukasz 1591Open Mężczyzn435M 56910:1501:19:19.9501:19:19.95+00:37:5813:134.5
482MRÓZ Tomek 1294POWER TRAININGOpen Masters Mężczyzn47M 57011:3001:19:22.9001:19:22.90+00:38:0113:134.5
483SOKOŁOWSKI Artur 1176DZIADY OCROpen Masters Mężczyzn48M 57111:1501:19:24.9501:19:24.95+00:38:0313:144.5
484LESZCZYŃSKI Rafał 970BIEGAM WSPIERAM MOTYWUJĘOpen Mężczyzn436M 57210:4501:19:35.6501:19:35.65+00:38:1413:154.5
485KOLARCZYK Paweł 1329Open Mężczyzn437M 57311:3001:19:46.4001:19:46.40+00:38:2513:174.5
486TYMANOWSKI Adam 1355Open Masters Mężczyzn49M 57411:3001:19:51.8501:19:51.85+00:38:3013:184.5
487MOKWIŃSKI Bogdan 1007WSPÓLNYKOMPASOpen Mężczyzn438M 57510:4501:19:53.3501:19:53.35+00:38:3213:184.5
488NOWAK Adam 1210ZIELONA IMPREZAOpen Mężczyzn439M 57611:1501:19:53.9001:19:53.90+00:38:3213:184.5
489KUJDA Bartek 541I NA CO CI TO BYŁO...Open Mężczyzn440M 57709:4501:19:54.2001:19:54.20+00:38:3313:194.5
490GEZELA Jacek 1211ZIELONAIMPREZAOpen Mężczyzn441M 57811:1501:19:54.2501:19:54.25+00:38:3313:194.5
491JURCZAK Mateusz 540I NA CO CI TO BYŁO...Open Mężczyzn442M 57909:4501:19:54.4501:19:54.45+00:38:3313:194.5
492CHAJKO Łukasz Kamil 1005WSPÓLNYKOMPASOpen Mężczyzn443M 58010:4501:19:54.9001:19:54.90+00:38:3313:194.5
493NADOLNY Kamil 438LTGOpen Mężczyzn444M 58209:3001:20:03.2501:20:03.25+00:38:4213:204.5
494ŻUKOWSKI Arkadiusz 1125ZIEL-ONIOpen Mężczyzn445M 58311:0001:20:03.5501:20:03.55+00:38:4213:204.5
495BABACZ Marcin 442NETIA SPEED 2Open Mężczyzn446M 58409:3001:20:05.4001:20:05.40+00:38:4413:204.5
496FIJOŁEK Dominik 1169ADSUMUSOpen Mężczyzn447M 58511:1501:20:06.5001:20:06.50+00:38:4513:214.5
497KORYCKI Bartek 1170ADSUMUSOpen Mężczyzn448M 58611:1501:20:06.7501:20:06.75+00:38:4513:214.5
498KALWARCZYK Mariusz 501Open Mężczyzn449M 58709:3001:20:07.4501:20:07.45+00:38:4613:214.5
499TEPER Bartosz 754ALKOHIMALAIŚCI !Open Mężczyzn450M 58810:1501:20:09.4501:20:09.45+00:38:4813:214.5
500MIELCZAREK Adam 838Open Masters Mężczyzn50M 58910:1501:20:11.8001:20:11.80+00:38:5013:214.5
501MIELCZAREK Patryk 839Open Mężczyzn451M 59010:1501:20:11.8501:20:11.85+00:38:5013:214.5
502CHŁĄD Aleksander 1409Open Mężczyzn452M 59111:4501:20:11.9001:20:11.90+00:38:5013:214.5
503DŁUGOZIMA Hubert 1006WSPÓLNYKOMPASOpen Mężczyzn453M 59210:4501:20:15.5001:20:15.50+00:38:5413:224.5
504ANTOSZ Mateusz 753ALKOHIMALAIŚCI !Open Mężczyzn454M 59310:1501:20:15.7501:20:15.75+00:38:5413:224.5
505CIOSEK Radosław 1310TORPEDA RACE TEAMOpen Mężczyzn455M 59411:3001:20:19.6501:20:19.65+00:38:5813:234.5
506POLAŃSKI Kamil 1064#DMUCHANA PALMA CREWOpen Mężczyzn456M 59511:0001:20:22.9501:20:22.95+00:39:0113:234.5
507NYCZ Michał 1063#DMUCHANA PALMA CREWOpen Mężczyzn457M 59611:0001:20:25.6501:20:25.65+00:39:0413:244.5
508BRUDNICKI Patryk 1321Open Mężczyzn458M 59711:4501:20:29.7501:20:29.75+00:39:0813:244.5
509URBANEK Artur 1451Open Mężczyzn459M 59811:4501:20:30.8501:20:30.85+00:39:0913:254.5
510TEPER Jacek 755ALKOHIMALAIŚCI !Open Mężczyzn460M 59910:1501:20:31.0501:20:31.05+00:39:0913:254.5
511NIKOŁAJÓW Adam 1199ŚFAGRYOpen Masters Mężczyzn51M 60011:1501:20:32.7501:20:32.75+00:39:1113:254.5
512RELIGA Muchał 1398PUMP SQUATOpen Mężczyzn461M 60111:0001:20:35.6501:20:35.65+00:39:1413:254.5
513GAŃKO Daniel 132Open Mężczyzn462M 60211:4501:20:38.0001:20:38.00+00:39:1613:264.5
514BESARABA Łukasz 585Open Mężczyzn463M 60309:4501:20:42.3501:20:42.35+00:39:2113:274.5
515GOŁASZEWSKI Jacek 595Open Mężczyzn464M 60409:4501:20:44.0501:20:44.05+00:39:2213:274.5
516RYTYCH Grzegorz 334HUSARIA RACE TEAMOpen Mężczyzn465M 60509:0001:20:46.9501:20:46.95+00:39:2513:274.5
517SMĘDA Marcin 627Open Mężczyzn466M 60609:4501:20:47.0001:20:47.00+00:39:2513:274.5
518STASIAK Łukasz 1122URODZINOWA TEAMOpen Mężczyzn467M 60711:0001:20:50.9501:20:50.95+00:39:2913:284.5
519IDASZEK Marcin 118Open Mężczyzn468M 60811:4501:20:51.7501:20:51.75+00:39:3013:284.5
520JEZIORNY Wojtek 1521Open Mężczyzn469M 60912:0001:20:52.5001:20:52.50+00:39:3113:284.5
521SZUBIELSKI Piotr 1446Open Mężczyzn470M 61011:4501:20:53.0501:20:53.05+00:39:3113:284.5
522SLUPECKI Radek 742Open Mężczyzn471M 61110:0001:20:53.4501:20:53.45+00:39:3213:284.5
523SZNAJDER Mariusz 119Open Mężczyzn472M 61211:4501:20:55.0001:20:55.00+00:39:3313:294.4
524NOWAKOWSKI Arkadiusz 1121URODZINOWA TEAMOpen Mężczyzn473M 61311:0001:20:55.9001:20:55.90+00:39:3413:294.4
525POTYRALSKI Grzegorz 368VIGO SYSTEMOpen Mężczyzn474M 61509:1501:20:57.4001:20:57.40+00:39:3613:294.4
526WINCEK Dariusz 1454Open Mężczyzn475M 61611:4501:21:00.9001:21:00.90+00:39:3913:304.4
527WOJNOWSKI Marcin 429HUSARIA RACE TEAMOpen Mężczyzn476M 61709:3001:21:01.5501:21:01.55+00:39:4013:304.4
528SKOREK Krzysztof 626Open Mężczyzn477M 61809:4501:21:04.1501:21:04.15+00:39:4213:304.4
529BUJNOWICZ Rafał 589Open Mężczyzn478M 61909:4501:21:04.2501:21:04.25+00:39:4313:304.4
530STĘPNIAK Adrian 555MASADA KRAV MAGAOpen Mężczyzn479M 62009:4501:21:08.6501:21:08.65+00:39:4713:314.4
531KOT Michał 1485KREJZOLE SPOT STOLYCYOpen Masters Mężczyzn52M 62112:0001:21:09.1001:21:09.10+00:39:4713:314.4
532ŻAK Przemysław 1361Open Mężczyzn480M 62211:3001:21:12.7501:21:12.75+00:39:5113:324.4
533GROMADZKI Bartosz 266Open Mężczyzn481M 62309:0001:21:14.3001:21:14.30+00:39:5313:324.4
534RODASZYŃSKI Paweł 1344Open Mężczyzn482M 62411:3001:21:15.4001:21:15.40+00:39:5413:324.4
535STRZELECKI Kacper 1349Open Mężczyzn483M 62511:3001:21:23.1001:21:23.10+00:40:0113:334.4
536KORCZYŃSKI Norbert 825Open Mężczyzn484M 62610:1501:21:30.5501:21:30.55+00:40:0913:354.4
537WENTA Marek 352SRTG WARSZAWAOpen Mężczyzn485M 62709:1501:21:33.6001:21:33.60+00:40:1213:354.4
538SKRZYPCZYŃSKI Rafał 1348Open Mężczyzn486M 62811:3001:21:35.5501:21:35.55+00:40:1413:354.4
539BAGNICKI Dariusz 1482KREJZOLE SPOT STOLYCYOpen Masters Mężczyzn53M 62912:0001:21:45.5001:21:45.50+00:40:2413:374.4
540LIAZHNIN Maksim 1334Open Mężczyzn487M 63011:3001:21:45.9001:21:45.90+00:40:2413:374.4
541PATALAN Dariusz 1484KREJZOLE SPOT STOLYCYOpen Masters Mężczyzn54M 63112:0001:21:46.9501:21:46.95+00:40:2513:374.4
542CICHOCKI Krzysztof 378Open Mężczyzn488M 63209:1501:21:50.2501:21:50.25+00:40:2913:384.4
543KOPYDŁOWSKI Szymon 506Open Mężczyzn489M 63309:3001:21:50.5501:21:50.55+00:40:2913:384.4
544SALWEROWICZ Mateusz 517Open Mężczyzn490M 63409:3001:21:53.5001:21:53.50+00:40:3213:384.4
545BABIŃSKI Rafał 1404Open Mężczyzn491M 63511:4501:21:55.8501:21:55.85+00:40:3413:394.4
546ZYNGER Marcin 430I NEVER TURN BACKOpen Mężczyzn492M 63609:3001:21:57.0001:21:57.00+00:40:3513:394.4
547WOLNOMIEJSKI Rafał 207EKIPA HAIEROpen Masters Mężczyzn55M 63709:0001:22:03.2501:22:03.25+00:40:4213:404.4
548KOWALSKI Mariusz 392Open Mężczyzn493M 63809:1501:22:04.0501:22:04.05+00:40:4213:404.4
549MIODUSZEWSKI Marcin 1563Open Mężczyzn494M 63911:4501:22:04.2501:22:04.25+00:40:4313:404.4
550NIKIEL Dariusz 616Open Mężczyzn495M 64009:4501:22:05.7501:22:05.75+00:40:4413:404.4
551JÓZWIK Leszek 602Open Masters Mężczyzn56M 64109:4501:22:15.4001:22:15.40+00:40:5413:424.4
552PLEWKA Daniel 1342Open Mężczyzn496M 64211:3001:22:19.5501:22:19.55+00:40:5813:434.4
553SIKORA Mateusz 1347Open Mężczyzn497M 64311:3001:22:19.6501:22:19.65+00:40:5813:434.4
554KAPUŚCIŃSKI-BERNATEK Jakub 272Open Mężczyzn498M 64509:0001:22:26.6501:22:26.65+00:41:0513:444.4
555SZEWCZYK Paweł 955Open Masters Mężczyzn57M 64610:3001:22:27.6001:22:27.60+00:41:0613:444.4
556STĘPNIAK Marek 851Open Mężczyzn499M 64710:0001:22:35.2501:22:35.25+00:41:1413:454.4
557DZIĘGIELOWSKI Łukasz 818Open Mężczyzn500M 64810:1501:22:36.4001:22:36.40+00:41:1513:464.4
558DYNOWSKI Krzyszof 706Open Masters Mężczyzn58M 64910:0001:22:38.9501:22:38.95+00:41:1713:464.4
559POJMAJ Grzegorz 1123WŚCIEKŁE GRZMOTYLE TEAMOpen Mężczyzn501M 65011:0001:22:40.1501:22:40.15+00:41:1813:464.4
560STYKOWSKI Grzegorz 458NETIA SPEED 2Open Mężczyzn502M 65109:3001:22:41.3001:22:41.30+00:41:2013:464.4
561ZIÓŁKOWSKI Łukasz 1124WŚCIEKŁE GRZMOTYLE TEAMOpen Mężczyzn503M 65211:0001:22:41.6001:22:41.60+00:41:2013:464.4
562BALCZEWSKI Maciek 1406Open Mężczyzn504M 65311:4501:22:42.5001:22:42.50+00:41:2113:474.4
563PESTA Michal 552MASADA KRAV MAGAOpen Mężczyzn505M 65409:4501:22:47.5001:22:47.50+00:41:2613:474.3
564PANICZ Dominik 1049Open Mężczyzn506M 65510:4501:22:52.3501:22:52.35+00:41:3113:484.3
565PRZYBYŁA Karol 554MASADA KRAV MAGAOpen Mężczyzn507M 65609:4501:22:53.9501:22:53.95+00:41:3213:484.3
566JÓZEFOWSKI Robert 1377KREJZOLE SPOT STOLYCYOpen Mężczyzn508M 65711:4501:23:01.2001:23:01.20+00:41:4013:504.3
567KŁODZIŃSKI Marcin 550MASADA KRAV MAGAOpen Mężczyzn509M 65809:4501:23:01.5501:23:01.55+00:41:4013:504.3
568MUZYKA Mariusz 1195ROLNICY RZEŻUCHYOpen Mężczyzn510M 65911:4501:23:05.6501:23:05.65+00:41:4413:504.3
569MUZYKA Jarosław 1194ROLNICY RZEŻUCHYOpen Mężczyzn511M 66011:4501:23:07.9001:23:07.90+00:41:4613:514.3
570SOCHALA Szymon 788ŁOWICZ TEAMOpen Mężczyzn512M 66110:1501:23:08.6501:23:08.65+00:41:4713:514.3
571KOŁAKOWSKI Sebastian 94Open Mężczyzn513M 66208:3001:23:08.8501:23:08.85+00:41:4713:514.3
572SOŁODUCHA Sebastian 758AMIGOS WARSZAWAOpen Mężczyzn514M 66310:1501:23:11.0501:23:11.05+00:41:4913:514.3
573PIOTROWSKI Bartek 757AMIGOS WARSZAWAOpen Mężczyzn515M 66410:1501:23:11.3001:23:11.30+00:41:5013:514.3
574PŁUCIENNICZAK Hubert 553MASADA KRAV MAGAOpen Mężczyzn516M 66509:4501:23:12.2501:23:12.25+00:41:5113:524.3
575CHROMIEC Adrian 900SNOW DRINK TEAMOpen Mężczyzn517M 66610:3001:23:12.3501:23:12.35+00:41:5113:524.3
576DRABIŃSKI Adrian 901SNOW DRINK TEAMOpen Mężczyzn518M 66710:3001:23:12.4501:23:12.45+00:41:5113:524.3
577CAREWICZ Marek 1596Open Masters Mężczyzn59M 66812:0001:23:15.9001:23:15.90+00:41:5413:524.3
578BARAŃSKI Łukasz 1589Open Mężczyzn519M 66909:4501:23:17.5501:23:17.55+00:41:5613:524.3
579STANKIEWICZ Paweł 673SZWAGRY DWAOpen Mężczyzn520M 67010:0001:23:19.4501:23:19.45+00:41:5813:534.3
580ŻBIK Mateusz 370VIGO SYSTEMOpen Mężczyzn521M 67109:1501:23:26.2001:23:26.20+00:42:0513:544.3
581BUGAŃSKI-OLSEN Snorre 357VIGO SYSTEMOpen Mężczyzn522M 67209:1501:23:27.3001:23:27.30+00:42:0613:544.3
582BROŻYNA Łukasz 697Open Mężczyzn523M 67310:0001:23:29.9001:23:29.90+00:42:0813:544.3
583TĄPOROWSKI Mateusz 1158Open Mężczyzn524M 67411:0001:23:37.3001:23:37.30+00:42:1613:564.3
584MIKLEWSKI Michał 1431Open Mężczyzn525M 67511:4501:23:40.8501:23:40.85+00:42:1913:564.3
585FUGIELSKI Konrad 445NETIA SPEED 2Open Mężczyzn526M 67609:3001:23:41.0001:23:41.00+00:42:1913:564.3
586JANKOWSKI Łukasz 712Open Mężczyzn527M 67710:0001:23:43.0001:23:43.00+00:42:2113:574.3
587WTULICH Bartlomiej 1165Open Mężczyzn528M 67811:0001:23:43.1001:23:43.10+00:42:2113:574.3
588DUTKIEWICZ Bartłomiej 978GANG PAND :)Open Mężczyzn529M 67910:4501:23:46.3001:23:46.30+00:42:2513:574.3
589CHRISTENSEN Jens 257Open Masters Mężczyzn60M 68009:0001:23:49.6001:23:49.60+00:42:2813:584.3
590GITA Arkadiusz 1415Open Mężczyzn530M 68111:4501:23:52.4001:23:52.40+00:42:3113:584.3
591TUR Rafal 1450Open Mężczyzn531M 68211:4501:23:52.6001:23:52.60+00:42:3113:584.3
592BĄK Piotr 210HUSARIA RACE TEAMOpen Mężczyzn532M 68309:0001:23:53.1001:23:53.10+00:42:3113:584.3
593KŁOSOWSKI Karol 672SZWAGRY DWAOpen Mężczyzn533M 68410:0001:23:55.9501:23:55.95+00:42:3413:594.3
594ŁOPATEK Kamil 1120URODZINOWA TEAMOpen Mężczyzn534M 68511:0001:23:59.7501:23:59.75+00:42:3813:594.3
595GRABOWSKI Pawel 979GANG PAND :)Open Mężczyzn535M 68610:4501:24:01.3501:24:01.35+00:42:4014:004.3
596KWIATKOWSKI Tomasz 1333Open Mężczyzn536M 68711:3001:24:02.2001:24:02.20+00:42:4114:004.3
597HOŁOWACZ Kamil 327HUSARIA RACE TEAMOpen Mężczyzn537M 68809:1501:24:03.0001:24:03.00+00:42:4114:004.3
598KOPER Krzysztof 715Open Mężczyzn538M 68910:0001:24:06.2501:24:06.25+00:42:4514:014.3
599URBAN Jakub 1550Open Mężczyzn539M 69012:0001:24:07.8001:24:07.80+00:42:4614:014.3
600MACHAJ Tomasz 1526Open Masters Mężczyzn61M 69112:0001:24:12.1501:24:12.15+00:42:5014:024.3
601TWARKOWSKI Ryszard 1354Open Mężczyzn540M 69211:3001:24:14.0001:24:14.00+00:42:5214:024.3
602ŁĄCZYŃSKI Bartosz 363VIGO SYSTEMOpen Mężczyzn541M 69309:1501:24:17.5501:24:17.55+00:42:5614:024.3
603PRZEWŁOKA Paweł 880HUSARIA RACE TEAMOpen Mężczyzn542M 69410:3001:24:21.5501:24:21.55+00:43:0014:034.3
604KOSIŃSKI Tomasz 1166-= GUMISIE =-Open Mężczyzn543M 69511:1501:24:21.7001:24:21.70+00:43:0014:034.3
605FUS Kamil 1585Open Mężczyzn544M 69610:3001:24:22.4501:24:22.45+00:43:0114:034.3
606SZCZYGIELSKI Jakub 641BEZ NAZWYOpen Mężczyzn545M 69710:0001:24:24.0501:24:24.05+00:43:0214:044.3
607ZALEWSKI Marcin 73TRENER24H.COM.PLOpen Mężczyzn546M 69808:3001:24:26.5001:24:26.50+00:43:0514:044.3
608BUKOJEMSKI Marcin 928Open Masters Mężczyzn62M 69910:3001:24:27.6001:24:27.60+00:43:0614:044.3
609TARKOWSKI Adam 1257Open Masters Mężczyzn63M 70011:1501:24:27.8001:24:27.80+00:43:0614:044.3
610SZCZYGIELSKI Krzysztof 642BEZ NAZWYOpen Mężczyzn547M 70110:0001:24:27.9001:24:27.90+00:43:0614:044.3
611JUREWICZ Andrzej 877HUSARIA RACE TEAMOpen Mężczyzn548M 70210:3001:24:28.2501:24:28.25+00:43:0714:044.3
612MIŚTA Przemysław 1240Open Mężczyzn549M 70311:1501:24:28.7001:24:28.70+00:43:0714:044.3
613BRYŁA Paweł 1217Open Mężczyzn550M 70411:1501:24:28.7001:24:28.70+00:43:0714:044.3
614KRAWCZAK Emil 1167-= GUMISIE =-Open Mężczyzn551M 70511:1501:24:31.3001:24:31.30+00:43:1014:054.3
615KOCIK Dariusz 1231Open Masters Mężczyzn64M 70611:1501:24:32.2501:24:32.25+00:43:1114:054.3
616SZRENIAWA-SZTAJNERT Artur 852Open Mężczyzn552M 70710:1501:24:35.3001:24:35.30+00:43:1414:054.3
617GODLEWSKI Grzegorz 1503TI AUTOMOTIVEOpen Mężczyzn553M 70812:0001:24:41.1501:24:41.15+00:43:1914:064.3
618PIĄTKOWSKI Marcin 1505TI AUTOMOTIVEOpen Mężczyzn554M 70912:0001:24:41.5001:24:41.50+00:43:2014:064.3
619KWIECIEŃ Michał 449NETIA SPEED 2Open Mężczyzn555M 71009:3001:24:42.1501:24:42.15+00:43:2014:074.3
620SZKUTNICKI Jarek 518Open Masters Mężczyzn65M 71109:3001:24:42.5001:24:42.50+00:43:2114:074.3
621PURCHALAK Paweł 1097NO LIMIT TEAMOpen Mężczyzn556M 71211:0001:24:45.5001:24:45.50+00:43:2414:074.2
622ORZECHOWSKI Kamil 512Open Mężczyzn557M 71310:0001:24:47.5501:24:47.55+00:43:2614:074.2
623FRANKOWSKI Michał 781LODOŻERCYOpen Mężczyzn558M 71410:1501:24:50.2501:24:50.25+00:43:2914:084.2
624FIJALKOWSKI Kamil 933Open Mężczyzn559M 71511:0001:24:57.2001:24:57.20+00:43:3614:094.2
625JAROSZEWSKI Sławomir 601Open Masters Mężczyzn66M 71609:4501:24:57.2501:24:57.25+00:43:3614:094.2
626PAWŁOWSKI Karol 784LODOŻERCYOpen Masters Mężczyzn67M 71710:1501:24:59.2001:24:59.20+00:43:3814:094.2
627DĄBROWSKI Daniel 931Open Mężczyzn560M 71811:0001:25:00.2501:25:00.25+00:43:3914:104.2
628WEYSSENHOFF Piotr 977DZIKI ZGON KOŚCIANOpen Mężczyzn561M 71910:4501:25:02.1001:25:02.10+00:43:4014:104.2
629NOWACZYK Grzegorz 783LODOŻERCYOpen Masters Mężczyzn68M 72010:1501:25:04.4001:25:04.40+00:43:4314:104.2
630WOJCIK Dawid 1162Open Mężczyzn562M 72111:0001:25:04.7501:25:04.75+00:43:4314:104.2
631KRUPIENKO Tomasz 782LODOŻERCYOpen Mężczyzn563M 72210:1501:25:05.7001:25:05.70+00:43:4414:104.2
632ŚRAMSKI Mikołaj 785LODOŻERCYOpen Mężczyzn564M 72310:1501:25:05.8501:25:05.85+00:43:4414:104.2
633FRĄCZYK Jędrzej 1135Open Mężczyzn565M 72411:0001:25:06.1501:25:06.15+00:43:4414:114.2
634ZBYROWSKI Szymon 899RUNAWAYSOpen Mężczyzn566M 72510:3001:25:09.2501:25:09.25+00:43:4814:114.2
635HORODECKI Kamil 1318WEEKENDOWI KOWBOJEOpen Mężczyzn567M 72611:3001:25:10.4501:25:10.45+00:43:4914:114.2
636BOBALA Krystian 1316WEEKENDOWI KOWBOJEOpen Mężczyzn568M 72711:3001:25:12.5501:25:12.55+00:43:5114:124.2
637KOSOŃ Czarek 898RUNAWAYSOpen Mężczyzn569M 72810:3001:25:15.2001:25:15.20+00:43:5414:124.2
638BIZOŃ Piotr 242SANA GLORIAEOpen Mężczyzn570M 72909:4501:25:15.3501:25:15.35+00:43:5414:124.2
639KOWALCZYK Emil 976DZIKI ZGON KOŚCIANOpen Mężczyzn571M 73010:4501:25:17.4501:25:17.45+00:43:5614:124.2
640DRABIK Wacław 1317WEEKENDOWI KOWBOJEOpen Masters Mężczyzn69M 73111:3001:25:17.8501:25:17.85+00:43:5614:124.2
641JABŁONOWSKI Andrzej 133Open Masters Mężczyzn70M 73212:0001:25:18.2501:25:18.25+00:43:5714:134.2
642SACHARCZUK Mateusz 1541Open Mężczyzn572M 73312:0001:25:20.3001:25:20.30+00:43:5914:134.2
643SZUBINSKI Kamil 1464COMIZROBISZJAKMNIEZLAPIESZOpen Mężczyzn573M 73412:0001:25:21.2501:25:21.25+00:44:0014:134.2
644BUDNY Arkadiusz 699Open Mężczyzn574M 73510:0001:25:22.1001:25:22.10+00:44:0014:134.2
645GAWRYŚ Aleksander 1137Open Mężczyzn575M 73611:0001:25:34.6001:25:34.60+00:44:1314:154.2
646PAK Dominik 1154Open Mężczyzn576M 73711:0001:25:39.8001:25:39.80+00:44:1814:164.2
647KABAŁA Piotr 1226Open Mężczyzn577M 73811:1501:25:40.7501:25:40.75+00:44:1914:164.2
648SZPAKOWSKI Jacek 1168-= GUMISIE =-Open Mężczyzn578M 73911:1501:25:42.4001:25:42.40+00:44:2114:174.2
649KOCOŁOWSKI Jerzy 1588Open Masters Mężczyzn71M 74011:0001:25:43.7501:25:43.75+00:44:2214:174.2
650CIEŚLAK Marcin 701Open Mężczyzn579M 74110:0001:25:50.2501:25:50.25+00:44:2914:184.2
651KUCHTA Damian 1035Open Mężczyzn580M 74211:1501:25:50.4501:25:50.45+00:44:2914:184.2
652BRYŚ Krzysztof 884LECYMY DURŚOpen Mężczyzn581M 74310:3001:25:54.8501:25:54.85+00:44:3314:194.2
653NOWACKI Rafał 1241Open Mężczyzn582M 74411:1501:25:55.2001:25:55.20+00:44:3414:194.2
654PAWLACZYK Szymon 1246Open Mężczyzn583M 74511:1501:25:55.2001:25:55.20+00:44:3414:194.2
655KULECZKA Jacek 1331Open Mężczyzn584M 74611:3001:26:00.2501:26:00.25+00:44:3914:204.2
656WONS Krystian 1061Open Mężczyzn585M 74711:1501:26:04.4501:26:04.45+00:44:4314:204.2
657CENCELEWICZ Marcin 669RSTOpen Mężczyzn586M 74810:0001:26:06.8501:26:06.85+00:44:4514:214.2
658BOSS Oskar 668RSTOpen Mężczyzn587M 74910:0001:26:07.1001:26:07.10+00:44:4514:214.2
659KOPANIA Damian 1522Open Mężczyzn588M 75012:0001:26:19.3001:26:19.30+00:44:5814:234.2
660GULBINOWICZ Jakub 577WOJOWNICZE SZOPYOpen Mężczyzn589M 75110:3001:26:22.9001:26:22.90+00:45:0114:234.2
661PAWLIKOWSKI Kacper 524BIEGNĘPOPIWOOpen Mężczyzn590M 75209:4501:26:23.0501:26:23.05+00:45:0114:234.2
662STĘPIEŃ Ernest 1253Open Mężczyzn591M 75311:1501:26:23.2501:26:23.25+00:45:0214:234.2
663DĄBROWSKI Igor 592Open Mężczyzn592M 75409:4501:26:23.8001:26:23.80+00:45:0214:234.2
664TYSZECKI Dariusz 1206WSZYSCY Z LISTYOpen Mężczyzn593M 75511:1501:26:28.5501:26:28.55+00:45:0714:244.2
665CHOJECKI Piotr 1561Open Mężczyzn594M 75611:4501:26:28.9501:26:28.95+00:45:0714:244.2
666GIRO Kacper 1301TEAM WIERNY SETUNIOpen Mężczyzn595M 75711:3001:26:29.7001:26:29.70+00:45:0814:244.2
667JAKUBIAK Tomasz 388Open Mężczyzn596M 75809:1501:26:34.5001:26:34.50+00:45:1314:254.2
668KUCHARSKI Tomasz 1204WSZYSCY Z LISTYOpen Mężczyzn597M 75911:1501:26:35.3501:26:35.35+00:45:1414:254.2
669SKIERCZYŃSKI Karol 1542Open Mężczyzn598M 76012:0001:26:35.4501:26:35.45+00:45:1414:254.2
670OBORSKI Michał 949Open Mężczyzn599M 76110:3001:26:36.4001:26:36.40+00:45:1514:264.2
671CIESIOŁKIEWICZ Kacper 127Open Mężczyzn600M 76212:0001:26:48.9501:26:48.95+00:45:2714:284.1
672HERRERA CEBALLOS Javier 128Open Mężczyzn601M 76312:0001:26:49.3501:26:49.35+00:45:2814:284.1
673KOPROWSKI Gabriel 1303TEAM WIERNY SETUNIOpen Mężczyzn602M 76411:3001:26:52.5001:26:52.50+00:45:3114:284.1
674LIPNIEWSKI Łukasz 1304TEAM WIERNY SETUNIOpen Mężczyzn603M 76511:3001:26:52.6001:26:52.60+00:45:3114:284.1
675KANIOWSKI Kamil 1399ROSSBIEGANIOpen Mężczyzn604M 76611:0001:26:52.7001:26:52.70+00:45:3114:284.1
676BOGUSKI Radosław 1299TEAM WIERNY SETUNIOpen Mężczyzn605M 76711:3001:26:52.8001:26:52.80+00:45:3114:284.1
677KRAWCZYK Rafał 1110ROSSBIEGANIOpen Mężczyzn606M 76811:0001:26:52.8501:26:52.85+00:45:3114:284.1
678DYMEK Sebastian 1300TEAM WIERNY SETUNIOpen Mężczyzn607M 76911:3001:26:52.8501:26:52.85+00:45:3114:284.1
679GRABOWSKI Mariusz 1139Open Mężczyzn608M 77011:0001:26:52.8501:26:52.85+00:45:3114:284.1
680KOC Jacek 1302TEAM WIERNY SETUNIOpen Mężczyzn609M 77111:3001:26:52.9501:26:52.95+00:45:3114:284.1
681SOUSA LEIROZ GUIMARAES Andre Filipe 130Open Mężczyzn610M 77312:0001:26:54.4001:26:54.40+00:45:3314:294.1
682WRONKA Damian 1260Open Mężczyzn611M 77411:1501:26:55.2001:26:55.20+00:45:3414:294.1
683KAŹMIERCZAK Dariusz 823Open Mężczyzn612M 77510:1501:26:58.8001:26:58.80+00:45:3714:294.1
684BARANOWICZ Piotr 810Open Mężczyzn613M 77610:1501:26:59.0001:26:59.00+00:45:3714:294.1
685FUDALA Michał 914WTF?Open Mężczyzn614M 77710:3001:27:03.1001:27:03.10+00:45:4114:304.1
686CHOJNOWSKI Arkadiusz 313DRUŻYNA TVNOpen Mężczyzn615M 77809:1501:27:08.1001:27:08.10+00:45:4614:314.1
687SEWERYNOWICZ Michał 33HARDCOROWE WYCHYLYLYBYMYOpen Mężczyzn616M 77908:3001:27:10.8501:27:10.85+00:45:4914:314.1
688JĘDRZEJCZYK Adam 1144Open Mężczyzn617M 78011:0001:27:19.5501:27:19.55+00:45:5814:334.1
689PODLASIŃSKI Łukasz 844Open Mężczyzn618M 78110:1501:27:19.9001:27:19.90+00:45:5814:334.1
690KUBACKI Jakub 238PZU SPORT TEAMOpen Mężczyzn619M 78209:0001:27:22.6001:27:22.60+00:46:0114:334.1
691PODLASIŃSKI Kamil 843Open Mężczyzn620M 78410:1501:27:26.1501:27:26.15+00:46:0414:344.1
692DZIĘGIELEWSKI Marcin 347PZU SPORT TEAMOpen Masters Mężczyzn72M 78509:0001:27:27.2501:27:27.25+00:46:0614:344.1
693LEWANDOWSKI Łukasz 606Open Mężczyzn621M 78609:4501:27:37.9001:27:37.90+00:46:1614:364.1
694KŁOS Karol 503Open Mężczyzn622M 78709:3001:27:39.7501:27:39.75+00:46:1814:364.1
695WASZKIEWICZ Karol 520Open Mężczyzn623M 78809:3001:27:40.9001:27:40.90+00:46:1914:364.1
696DĄGOWSKI Adrian 337KONIUCHY OCROpen Mężczyzn624M 78909:1501:27:40.9501:27:40.95+00:46:1914:364.1
697STRADZA Bartłomiej 954Open Mężczyzn625M 79010:3001:27:41.6501:27:41.65+00:46:2014:364.1
698MACHOWSKI Marcin 610Open Mężczyzn626M 79109:4501:27:47.4001:27:47.40+00:46:2614:374.1
699KORCZYK Tomasz 1427Open Mężczyzn627M 79211:4501:27:50.0501:27:50.05+00:46:2814:384.1
700TARNOWSKI Damian 679WARSAW DUKESOpen Mężczyzn628M 79310:0001:27:50.2501:27:50.25+00:46:2914:384.1
701BOGUSŁAWSKI Kamil 676WARSAW DUKESOpen Mężczyzn629M 79410:0001:27:57.6501:27:57.65+00:46:3614:394.1
702MAJ Kajetan 677WARSAW DUKESOpen Mężczyzn630M 79510:0001:27:59.1001:27:59.10+00:46:3714:394.1
703ZAWADA Rafał 680WARSAW DUKESOpen Mężczyzn631M 79610:0001:27:59.4501:27:59.45+00:46:3814:394.1
704MIODUSKI Piotr 240PZU SPORT TEAMOpen Mężczyzn632M 79709:0001:28:00.8501:28:00.85+00:46:3914:404.1
705JAGÓRA Dominik 237PZU SPORT TEAMOpen Mężczyzn633M 79809:0001:28:01.0001:28:01.00+00:46:3914:404.1
706WOJDALSKI Błażej 1060Open Mężczyzn634M 79910:4501:28:06.5501:28:06.55+00:46:4514:414.1
707FEDEROWICZ Grzegorz 683WATAHAOpen Masters Mężczyzn73M 80010:0001:28:07.9001:28:07.90+00:46:4614:414.1
708KUKUŚ Rafał 684WATAHAOpen Masters Mężczyzn74M 80110:0001:28:11.2501:28:11.25+00:46:5014:414.1
709MATYSEK Ireneusz 837Open Masters Mężczyzn75M 80210:1501:28:17.8501:28:17.85+00:46:5614:424.1
710PRZEPIÓRZYŃSKI Eryk 678WARSAW DUKESOpen Mężczyzn635M 80310:0001:28:19.7001:28:19.70+00:46:5814:434.1
711MILKOWSKI Sylwester 1044Open Mężczyzn636M 80410:4501:28:20.0501:28:20.05+00:46:5814:434.1
712JAKUBOWSKI Mariusz 1103POGOTOWIE MEDICOVEROpen Mężczyzn637M 80511:0001:28:20.9501:28:20.95+00:46:5914:434.1
713ZDUŃSKI Jarosław 1104POGOTOWIE MEDICOVEROpen Masters Mężczyzn76M 80611:0001:28:23.3501:28:23.35+00:47:0214:434.1
714LASEK Piotr 1386KREJZOLE SPOT STOLYCYOpen Masters Mężczyzn77M 80711:4501:28:23.6001:28:23.60+00:47:0214:434.1
715KAŁUŻA Patryk 1426Open Mężczyzn638M 80811:4501:28:28.3501:28:28.35+00:47:0714:444.1
716PIĘTKA Łukasz 399Open Mężczyzn639M 80909:1501:28:30.6501:28:30.65+00:47:0914:454.1
717WACHNIK Piotr 409Open Mężczyzn640M 81009:1501:28:31.7501:28:31.75+00:47:1014:454.1
718OKROJEK Szymon 396Open Mężczyzn641M 81109:1501:28:33.1001:28:33.10+00:47:1114:454.1
719LESIAK Łukasz 394Open Mężczyzn642M 81209:1501:28:36.0501:28:36.05+00:47:1414:464.1
720SYKUŁA Maciej 406Open Mężczyzn643M 81309:1501:28:39.5501:28:39.55+00:47:1814:464.1
721ZAWOJEK Paweł 1456Open Mężczyzn644M 81411:4501:28:40.5501:28:40.55+00:47:1914:464.1
722SMOGORZEWSKI Michał 1203WKURW_TEAMOpen Mężczyzn645M 81511:1501:28:40.9001:28:40.90+00:47:1914:464.1
723SIEMIŃSKI Bartosz 373ZWOLNIENI Z WUEFUOpen Mężczyzn646M 81609:1501:28:41.6501:28:41.65+00:47:2014:464.1
724JABLONSKI Oskar 939Open Mężczyzn647M 81710:3001:28:55.8001:28:55.80+00:47:3414:494
725WLAZIŃSKI Michał 958Open Mężczyzn648M 81810:3001:28:56.3501:28:56.35+00:47:3514:494
726POLOK Marek 1597Open Mężczyzn649M 81911:4501:28:57.4001:28:57.40+00:47:3614:494
727WESOŁOWSKI Łukasz 561MASAKRA KLUB SPORTOWYOpen Mężczyzn650M 82009:4501:29:03.8501:29:03.85+00:47:4214:504
728SOBOLEWSKI Grzegorz 560MASAKRA KLUB SPORTOWYOpen Mężczyzn651M 82109:4501:29:04.1501:29:04.15+00:47:4214:504
729DAMIĘCKI Jan 559MASAKRA KLUB SPORTOWYOpen Masters Mężczyzn78M 82209:4501:29:04.2501:29:04.25+00:47:4314:504
730CZERNIAK Artur 558MASAKRA KLUB SPORTOWYOpen Masters Mężczyzn79M 82309:4501:29:04.5501:29:04.55+00:47:4314:504
731NIEDBAŁOWSKI Jeremi 1305TEAM WIERNY SETUNIOpen Mężczyzn652M 82411:3001:29:11.3501:29:11.35+00:47:5014:514
732SOSNA Tomasz 1100PEOpen Mężczyzn653M 82511:0001:29:14.7001:29:14.70+00:47:5314:524
733SIEWIERSKI Maciej 952Open Mężczyzn654M 82610:3001:29:19.1001:29:19.10+00:47:5714:534
734JĘDRZEJCZYK Arkadiusz 537HUSARIA RACE TEAMOpen Mężczyzn655M 82709:4501:29:19.1001:29:19.10+00:47:5714:534
735JAROSZUK Andrzej 713Open Mężczyzn656M 82809:4501:29:20.0001:29:20.00+00:47:5814:534
736OŚLIŹNIOK Eryk 1099PEOpen Mężczyzn657M 82911:0001:29:20.2001:29:20.20+00:47:5914:534
737JASKÓLSKI Michał 302BECHEOpen Mężczyzn658M 83009:1501:29:24.5501:29:24.55+00:48:0314:544
738KAFARSKI Robert 360VIGO SYSTEMOpen Mężczyzn659M 83109:1501:29:26.4501:29:26.45+00:48:0514:544
739SOBCZYK Wiktor 106Open Mężczyzn660M 83208:3001:29:28.9001:29:28.90+00:48:0714:544
740CINAL Mariusz 440MARIO I MACIEJOpen Mężczyzn661M 83309:3001:29:30.3501:29:30.35+00:48:0914:554
741WALASZEK Maciej 441MARIO I MACIEJOpen Mężczyzn662M 83409:3001:29:39.6001:29:39.60+00:48:1814:564
742SOBECKI Adam 744Open Mężczyzn663M 83510:0001:29:40.4001:29:40.40+00:48:1914:564
743GRUDZIŃSKI Tomasz 485VERISTRONGOpen Mężczyzn664M 83609:3001:29:40.5001:29:40.50+00:48:1914:564
744SMOCZYŃSKI Marcin 743Open Mężczyzn665M 83710:0001:29:42.5501:29:42.55+00:48:2114:574
745KOZIEŁ Krystian 1002THE VIEWOpen Mężczyzn666M 83810:4501:29:43.0001:29:43.00+00:48:2114:574
746ŁODYGOWSKI Michał 1072CHECK ENGINEOpen Mężczyzn667M 83911:0001:29:46.3501:29:46.35+00:48:2514:574
747PUDŁOWSKI Sebastian 1539Open Mężczyzn668M 84012:0001:29:50.8001:29:50.80+00:48:2914:584
748TROJAN Darek 1449Open Mężczyzn669M 84111:4501:29:53.6001:29:53.60+00:48:3214:584
749PRZECH Bartosz 1175DELOITTE ADVENTURE TEAMOpen Mężczyzn670M 84211:1501:29:55.3501:29:55.35+00:48:3414:594
750REMPLEWICZ Mariusz 910WŚCIEKLIZNA GG+Open Mężczyzn671M 84310:3001:29:56.1501:29:56.15+00:48:3414:594
751ADAMCZYK Marek 1018Open Mężczyzn672M 84410:4501:29:59.5501:29:59.55+00:48:3814:594
752GÓRZYŃSKI Janusz 1380KREJZOLE SPOT STOLICYOpen Masters Mężczyzn80M 84511:4501:30:00.5501:30:00.55+00:48:3915:004
753KNAUER Jakub 991PRAISE NINKASIOpen Mężczyzn673M 84610:4501:30:02.5001:30:02.50+00:48:4115:004
754BOŚKA Patryk 802NIEPRZYGOTOWANIOpen Mężczyzn674M 84710:1501:30:11.5501:30:11.55+00:48:5015:014
755MACIASZCZYK Mateusz 803NIEPRZYGOTOWANI Open Mężczyzn675M 84810:1501:30:11.7501:30:11.75+00:48:5015:014
756KULBYTSKIY Więcesław 488VERISTRONGOpen Mężczyzn676M 84909:3001:30:12.5001:30:12.50+00:48:5115:024
757ŻELAZNY Marcin 556MASADA KRAV MAGAOpen Mężczyzn677M 85009:4501:30:14.2001:30:14.20+00:48:5315:024
758NAJMOŁA Wiktor 1045Open Mężczyzn678M 85110:4501:30:18.5501:30:18.55+00:48:5715:034
759KOROBCZUK Krzysztof 1173DELOITTE ADVENTURE TEAMOpen Mężczyzn679M 85211:1501:30:22.4001:30:22.40+00:49:0115:034
760GAŃKO Aleksander 691WŚCIEKŁE LENIWCEOpen Mężczyzn680M 85310:0001:30:24.6501:30:24.65+00:49:0315:044
761WLAZŁO Michał 856Open Mężczyzn681M 85410:1501:30:25.0001:30:25.00+00:49:0315:044
762MACIEJEWSKI Krystian 833Open Mężczyzn682M 85510:1501:30:28.8001:30:28.80+00:49:0715:044
763MISTRZAK Kamil 1149Open Mężczyzn683M 85611:0001:30:32.0501:30:32.05+00:49:1015:054
764CHOJNACKI Łukasz 1587Open Mężczyzn684M 85711:4501:30:35.1001:30:35.10+00:49:1315:054
765BARAŃSKI Łukasz 1590Open Mężczyzn685M 85811:4501:30:35.3501:30:35.35+00:49:1415:054
766LACHOWSKI Piotr Lachowski 345POWER TRAININGOpen Mężczyzn686M 85909:1501:30:42.5501:30:42.55+00:49:2115:074
767SMOLIBOWSKI Mikołaj 1365#BIOTECHOpen Mężczyzn687M 86011:4501:30:43.0501:30:43.05+00:49:2115:074
768BOHDZIEWICZ Paweł 340ŁOWCY.KLESZCZYOpen Mężczyzn688M 86109:1501:30:43.8001:30:43.80+00:49:2215:074
769KOZACZEK Sebastian 1428Open Mężczyzn689M 86211:4501:30:45.1501:30:45.15+00:49:2315:074
770SZYMAŃSKI Krzysztof 1578Open Masters Mężczyzn81M 86311:0001:30:47.2501:30:47.25+00:49:2615:074
771PRYKOWSKI Tomasz 1559SPORTERA FITNESS TEAMOpen Mężczyzn690M 86411:0001:30:47.3501:30:47.35+00:49:2615:074
772CZECH Michał 690WŚCIEKŁE LENIWCEOpen Mężczyzn691M 86510:0001:30:56.7501:30:56.75+00:49:3515:094
773KRÓL Mikołaj 487VERISTRONGOpen Mężczyzn692M 86609:3001:30:57.3001:30:57.30+00:49:3615:094
774DUDEK Michał 865BIEGUSIEM.PLOpen Mężczyzn693M 86710:3001:31:01.5501:31:01.55+00:49:4015:104
775TERLIKOWSKI Paweł 867BIEGUSIEM.PLOpen Mężczyzn694M 86810:3001:31:01.6501:31:01.65+00:49:4015:104
776GNATOWSKI Rafał 139Open Mężczyzn695M 86912:0001:31:04.9001:31:04.90+00:49:4315:104
777CHMIELEWSKI Mateusz 422HARDCOROWE WYCHYLYLYBYMYOpen Mężczyzn696M 87009:3001:31:04.9501:31:04.95+00:49:4315:104
778ADAMIEC Arkadiusz 1214Open Mężczyzn697M 87111:3001:31:06.9501:31:06.95+00:49:4515:114
779PATYŃSKI Adam 1116THE AVENGERSOpen Mężczyzn698M 87211:0001:31:14.9001:31:14.90+00:49:5315:123.9
780JABŁOŃSKI Jakub 1115THE AVENGERSOpen Mężczyzn699M 87311:0001:31:15.8501:31:15.85+00:49:5415:123.9
781HERNIK Arek 269Open Mężczyzn700M 87409:0001:31:16.1501:31:16.15+00:49:5415:123.9
782GRABOWSKI Mateusz 807WATAHAOpen Mężczyzn701M 87510:0001:31:17.2501:31:17.25+00:49:5615:123.9
783PRĘGOWSKI Piotr 490VERISTRONGOpen Mężczyzn702M 87609:3001:31:18.5501:31:18.55+00:49:5715:133.9
784KRAKIEWICZ Kamil 1371CZARNE PAZURYOpen Mężczyzn703M 87711:4501:31:19.3501:31:19.35+00:49:5815:133.9
785WILCZEK Marcin 581Z ZAPALENIEM PŁUC TEŻ FAJNIE.Open Mężczyzn704M 87809:4501:31:21.0501:31:21.05+00:49:5915:133.9
786PATER Maciej 619Open Mężczyzn705M 87909:4501:31:21.2501:31:21.25+00:50:0015:133.9
787SIKORSKI Mateusz 580Z ZAPALENIEM PŁUC TEŻ FAJNIE.Open Mężczyzn706M 88009:4501:31:21.4501:31:21.45+00:50:0015:133.9
788WERNIO Patryk 1373CZARNE PAZURYOpen Mężczyzn707M 88111:4501:31:23.3501:31:23.35+00:50:0215:133.9
789ŻMUDZIN Aleksander 1263Open Mężczyzn708M 88211:3001:31:25.6001:31:25.60+00:50:0415:143.9
790KURZAWSKI Dariusz 829Open Mężczyzn709M 88310:1501:31:27.2501:31:27.25+00:50:0615:143.9
791SYKUŁA Maciej 1580Open Mężczyzn710M 88409:1501:31:32.7501:31:32.75+00:50:1115:153.9
792NAKIELSKI Hubert 1112SAMCEOpen Mężczyzn711M 88511:0001:31:35.9501:31:35.95+00:50:1415:153.9
793ROSŁON Krzysiek 1156Open Mężczyzn712M 88611:0001:31:36.3001:31:36.30+00:50:1515:163.9
794RAK Cezary 533HARDCOROWE WYCHYLYLYBYMYOpen Mężczyzn713M 88709:0001:31:49.3501:31:49.35+00:50:2815:183.9
795SUCHTA Michał 1351Open Mężczyzn714M 88811:3001:31:52.5001:31:52.50+00:50:3115:183.9
796DULIASZ Cezary 381Open Masters Mężczyzn82M 88909:1501:32:04.8501:32:04.85+00:50:4315:203.9
797JACZYŃSKI Krystian 372ZWOLNIENI Z WUEFUOpen Mężczyzn715M 89109:1501:32:11.8001:32:11.80+00:50:5015:213.9
798WARSZAWSKI Patryk 1091KOCHAM PRZYPAŁOpen Mężczyzn716M 89211:0001:32:16.6001:32:16.60+00:50:5515:223.9
799LUTEREK Michał 608Open Mężczyzn717M 89309:4501:32:18.0001:32:18.00+00:50:5615:233.9
800JAGODZIŃSKI Adam 599Open Mężczyzn718M 89409:4501:32:20.3501:32:20.35+00:50:5915:233.9
801JARNUTOWSKI Bartłomiej 1111SAMCEOpen Mężczyzn719M 89511:0001:32:25.8001:32:25.80+00:51:0415:243.9
802HUZAR Ryszard 1141Open Masters Mężczyzn83M 89611:0001:32:31.3001:32:31.30+00:51:1015:253.9
803GRYŻEWSKI Karol 1201TYLKO PRAWDZIWE DZIKI " ODYŃCE "Open Mężczyzn720M 89711:1501:32:31.9001:32:31.90+00:51:1015:253.9
804ŁOPATEK Bartosz 1119URODZINOWA TEAMOpen Mężczyzn721M 89811:0001:32:32.4001:32:32.40+00:51:1115:253.9
805LADNER George 96Open Mężczyzn722M 89908:3001:32:32.9501:32:32.95+00:51:1115:253.9
806LADNER Paul 97Open Masters Mężczyzn84M 90008:3001:32:32.9501:32:32.95+00:51:1115:253.9
807LARWA Kamil 1494RYCKI EDAM JAKOŚĆ TRADYCJAOpen Mężczyzn723M 90112:0001:32:33.4001:32:33.40+00:51:1215:253.9
808RYMUSZKA Robert 1498RYCKI EDAM JAKOŚĆ TRADYCJAOpen Mężczyzn724M 90212:0001:32:33.4001:32:33.40+00:51:1215:253.9
809GOLEC Łukasz 326HUSARIA RACE TEAMOpen Mężczyzn725M 90309:1501:32:37.2501:32:37.25+00:51:1615:263.9
810BUGAJ Marcin 201CROSSFIT SOLVAYOpen Masters Mężczyzn85M 90409:0001:32:41.9501:32:41.95+00:51:2015:263.9
811MARZEC Paweł 202CROSSFIT SOLVAYOpen Mężczyzn726M 90509:0001:32:41.9501:32:41.95+00:51:2015:263.9
812JAKUBIAK Łukasz 1202TYLKO PRAWDZIWE DZIKI " ODYŃCE "Open Mężczyzn727M 90611:1501:32:43.6501:32:43.65+00:51:2215:273.9
813KRAWCZAK Mateusz 486VERISTRONGOpen Mężczyzn728M 90709:3001:32:44.6501:32:44.65+00:51:2315:273.9
814WAWRZYNIECKI Daniel 1356Open Mężczyzn729M 90811:3001:32:48.6501:32:48.65+00:51:2715:283.9
815KOMORZYCKI Robert 692WŚCIEKŁE LENIWCEOpen Mężczyzn730M 90910:0001:32:59.1501:32:59.15+00:51:3715:293.9
816KISIEL Andrzej 215HUSARIA RACE TEAMOpen Mężczyzn731M 91009:0001:33:03.0001:33:03.00+00:51:4115:303.9
817MILCZARCZYK Artur 1148Open Masters Mężczyzn86M 91111:0001:33:04.6001:33:04.60+00:51:4315:303.9
818SOBOCIŃSKI Karol 465PIĘKNI I BESTIEOpen Mężczyzn732M 91209:3001:33:07.5001:33:07.50+00:51:4615:313.9
819CZECH Piotr 1130Open Mężczyzn733M 91311:0001:33:07.5001:33:07.50+00:51:4615:313.9
820SKALIK Wojciech 739Open Mężczyzn734M 91410:0001:33:07.7001:33:07.70+00:51:4615:313.9
821SKIBIŃAKI Marcin 403Open Mężczyzn735M 91509:1501:33:09.2501:33:09.25+00:51:4815:313.9
822KURASZKIEWICZ Paweł 277Open Masters Mężczyzn87M 91609:0001:33:12.5001:33:12.50+00:51:5115:323.9
823DOMACIUK Sylwek 260Open Masters Mężczyzn88M 91709:0001:33:12.5001:33:12.50+00:51:5115:323.9
824FAJST Marcin 1200TYLKO PRAWDZIWE DZIKI " ODYŃCE "Open Mężczyzn736M 91811:1501:33:13.0001:33:13.00+00:51:5115:323.9
825JABLONKA Mariusz 646BRAVEHEARTS LEGIONOWOOpen Masters Mężczyzn89M 91910:0001:33:14.6001:33:14.60+00:51:5315:323.9
826MENDAK Bartłomiej 1146Open Mężczyzn737M 92011:0001:33:16.6001:33:16.60+00:51:5515:323.9
827JABLONKA Radoslaw 647BRAVEHEARTS LEGIONOWOOpen Masters Mężczyzn90M 92110:0001:33:16.8001:33:16.80+00:51:5515:323.9
828WILCZEK Lukasz 1161Open Mężczyzn738M 92211:0001:33:16.9001:33:16.90+00:51:5515:323.9
829WIŚNIEWSKI Michał 1581Open Mężczyzn739M 92311:0001:33:18.9501:33:18.95+00:51:5715:333.9
830KOŚMIDER Tomasz 275Open Mężczyzn740M 92409:0001:33:27.5001:33:27.50+00:52:0615:343.9
831RYNECKI Damian 625Open Mężczyzn741M 92509:4501:33:28.8001:33:28.80+00:52:0715:343.9
832GÓRA Karol 596Open Mężczyzn742M 92609:4501:33:29.4001:33:29.40+00:52:0815:343.9
833KOZIATEK Bartłomiej 1033Open Mężczyzn743M 92710:4501:33:33.2501:33:33.25+00:52:1215:353.8
834BIAŁY Adrian 535HUSARIA RACE TEAMOpen Mężczyzn744M 92809:4501:33:36.7501:33:36.75+00:52:1515:363.8
835MISZTAL Michał 948Open Mężczyzn745M 92910:3001:33:37.0501:33:37.05+00:52:1515:363.8
836PASIK Michał 304BECHEOpen Mężczyzn746M 93009:1501:33:39.2501:33:39.25+00:52:1815:363.8
837FRĄSZCZAK Wojciech 1517Open Mężczyzn747M 93112:0001:33:44.9501:33:44.95+00:52:2315:373.8
838DMITRZAK Dominik 1283LUDKI JAGÓDKIOpen Mężczyzn748M 93211:3001:33:47.0001:33:47.00+00:52:2515:373.8
839WEBER Jakub 1287LUDKI JAGÓDKIOpen Mężczyzn749M 93311:3001:33:53.7501:33:53.75+00:52:3215:383.8
840KANTOR Tomasz 1117TRENER24H.COM.PLOpen Mężczyzn750M 93411:0001:33:57.9501:33:57.95+00:52:3615:393.8
841WRÓBLEWSKI Jakub 1552Open Mężczyzn751M 93512:0001:33:59.3001:33:59.30+00:52:3815:393.8
842MATUSIAK Krzysztof 510Open Masters Mężczyzn91M 93609:3001:34:04.3001:34:04.30+00:52:4315:403.8
843ŻOCHOWSKI Artur 1264Open Masters Mężczyzn92M 93711:1501:34:13.5001:34:13.50+00:52:5215:423.8
844KORZENIEWSKI Michał 1232Open Mężczyzn752M 93811:1501:34:14.4501:34:14.45+00:52:5315:423.8
845ŻOCHOWSKI Oliwier 1362Open Mężczyzn753M 93911:1501:34:16.2501:34:16.25+00:52:5515:423.8
846JABŁOŃSKI Sebastian 1142Open Mężczyzn754M 94011:0001:34:17.4501:34:17.45+00:52:5615:423.8
847OSIŃSKI Kamil 1244Open Mężczyzn755M 94111:1501:34:23.9501:34:23.95+00:53:0215:433.8
848WLAŹLAK Michał 1551Open Mężczyzn756M 94211:0001:34:25.8001:34:25.80+00:53:0415:443.8
849WRZESIEŃ Adrian 1164Open Mężczyzn757M 94311:0001:34:26.0501:34:26.05+00:53:0415:443.8
850GRABARCZYK Rafał 597Open Masters Mężczyzn93M 94409:4501:34:28.4501:34:28.45+00:53:0715:443.8
851JASEK Łukasz 90Open Mężczyzn758M 94508:3001:34:33.7001:34:33.70+00:53:1215:453.8
852BALEJA Roman 1192PRESTIŻOWI LORDOWIEOpen Mężczyzn759M 94611:1501:34:37.1001:34:37.10+00:53:1515:463.8
853JACHYM Patryk 1284LUDKI JAGÓDKIOpen Mężczyzn760M 94711:3001:34:37.9501:34:37.95+00:53:1615:463.8
854CYMERMAN Maksymilian 1193PRESTIŻOWI LORDOWIEOpen Mężczyzn761M 94811:1501:34:47.6501:34:47.65+00:53:2615:473.8
855GRZYBOWSKI Patryk 1140Open Mężczyzn762M 94911:0001:35:04.1001:35:04.10+00:53:4215:503.8
856SUJKA Rafał 652BRAVEHEARTS LEGIONOWOOpen Mężczyzn763M 95010:0001:35:41.7501:35:41.75+00:54:2015:563.8
857DZIK Konrad 645BRAVEHEARTS LEGIONOWOOpen Mężczyzn764M 95110:0001:35:41.7501:35:41.75+00:54:2015:563.8
858WŁODARCZYK Paweł 653BRAVEHEARTS LEGIONOWOOpen Mężczyzn765M 95210:0001:35:41.9501:35:41.95+00:54:2015:563.8
859BIESIADA Maciej 1198ŚFAGRYOpen Mężczyzn766M 95311:1501:35:49.5001:35:49.50+00:54:2815:583.8
860GLAZIK Mateusz 1518Open Mężczyzn767M 95412:0001:35:49.9001:35:49.90+00:54:2815:583.8
861BURZYŃSKI Andrzej 1265AZS CPS DZIKIE WĘŻEOpen Mężczyzn768M 95511:3001:35:54.5001:35:54.50+00:54:3315:593.8
862GDANIEC Dariusz 1571Open Masters Mężczyzn94M 95610:0001:35:55.7501:35:55.75+00:54:3415:593.8
863MUCHA Robert 1389KREJZOLE SPOT STOLYCYOpen Masters Mężczyzn95M 95711:4501:35:57.8501:35:57.85+00:54:3615:593.8
864DUDEK Karol 1266AZS CPS DZIKIE WĘŻEOpen Mężczyzn769M 95811:3001:35:59.1001:35:59.10+00:54:3715:593.8
865MOLSKI Michał 451NETIA SPEED 2Open Masters Mężczyzn96M 95909:3001:36:02.2001:36:02.20+00:54:4116:003.7
866IGNACAK Sebastian 986NO LIMIT TEAMOpen Mężczyzn770M 96010:4501:36:04.1501:36:04.15+00:54:4216:003.7
867GULEWICZ Mateusz 985NO LIMIT TEAMOpen Masters Mężczyzn97M 96110:4501:36:04.6001:36:04.60+00:54:4316:003.7
868SZUTA Maciej 1547Open Mężczyzn771M 96212:0001:36:07.3001:36:07.30+00:54:4616:013.7
869PYTLARCZYK Piotr 988NO LIMIT TEAMOpen Masters Mężczyzn98M 96310:4501:36:07.7501:36:07.75+00:54:4616:013.7
870SZLASKI Piotr 1254Open Mężczyzn772M 96411:1501:36:12.4501:36:12.45+00:54:5116:023.7
871DZIERŻANOWSKI Igor 1267AZS CPS DZIKIE WĘŻEOpen Mężczyzn773M 96511:3001:36:13.2001:36:13.20+00:54:5216:023.7
872MIERZWA Piotr 725Open Mężczyzn774M 96609:1501:36:19.6001:36:19.60+00:54:5816:033.7
873ANGOWSKI Marcin 1382KREJZOLE SPOT STOLYCYOpen Mężczyzn775M 96711:4501:36:20.2501:36:20.25+00:54:5916:033.7
874KALINOWSKI Łukasz 1383KREJZOLE SPOT STOLYCYOpen Mężczyzn776M 96811:4501:36:22.6001:36:22.60+00:55:0116:033.7
875PACIGA Krzysztof 330HUSARIA RACE TEAMOpen Mężczyzn777M 96909:1501:36:22.9501:36:22.95+00:55:0116:033.7
876WASZCZYŃSKI Kamil 410Open Mężczyzn778M 97009:1501:36:29.2501:36:29.25+00:55:0816:043.7
877PRZYGODA Paweł 288Open Mężczyzn779M 97109:0001:36:30.9501:36:30.95+00:55:0916:053.7
878SOCZEWKA Przemysław 293Open Mężczyzn780M 97209:0001:36:31.0501:36:31.05+00:55:0916:053.7
879SOWA Michał 404Open Mężczyzn781M 97309:1501:36:33.0501:36:33.05+00:55:1116:053.7
880PIETRUCZUK Marcin 1268AZS CPS DZIKIE WĘŻEOpen Mężczyzn782M 97411:3001:36:36.4001:36:36.40+00:55:1516:063.7
881NAKIELSKI Wojciech 1113SAMCEOpen Masters Mężczyzn99M 97511:0001:36:39.5001:36:39.50+00:55:1816:063.7
882GAWRYSZEWSKI Bernard 447NETIA SPEED 2Open Mężczyzn783M 97609:3001:36:39.8501:36:39.85+00:55:1816:063.7
883TUKAJ Aleksander 493VERISTRONGOpen Mężczyzn784M 97709:3001:36:43.8001:36:43.80+00:55:2216:073.7
884GRABOWSKI Krzysztof 1098PEOpen Mężczyzn785M 97811:0001:37:03.7501:37:03.75+00:55:4216:103.7
885GUGLER Marcin 387Open Mężczyzn786M 97909:1501:37:05.1501:37:05.15+00:55:4316:103.7
886DMOCHOWSKI Sebastian 380Open Mężczyzn787M 98009:1501:37:05.5501:37:05.55+00:55:4416:103.7
887BUKOWSKI Kamil 497Open Mężczyzn788M 98109:3001:37:07.0001:37:07.00+00:55:4516:113.7
888RUDZIŃSKI Paweł 624Open Mężczyzn789M 98209:4501:37:16.1501:37:16.15+00:55:5416:123.7
889BLAŃDA Dominik 1476HUSARIA RACE TEAMOpen Mężczyzn790M 98310:4501:37:18.3501:37:18.35+00:55:5716:133.7
890ŚWIĘTEK Paweł 1105POWER STUDIOOpen Mężczyzn791M 98410:4501:37:22.8001:37:22.80+00:56:0116:133.7
891MARMUCKI Tomasz 836Open Mężczyzn792M 98510:1501:37:32.8001:37:32.80+00:56:1116:153.7
892SIENKIEWICZ Jakub 291Open Mężczyzn793M 98609:0001:37:37.3501:37:37.35+00:56:1616:163.7
893ZAŁOGA Maciej 635Open Mężczyzn794M 98709:4501:37:41.6501:37:41.65+00:56:2016:163.7
894LIPKA Krzysztof 607Open Mężczyzn795M 98809:4501:37:45.4001:37:45.40+00:56:2416:173.7
895SZYLBERG Piotr 350SPARTAN SGX WARSAWOpen Mężczyzn796M 98909:1501:37:59.6501:37:59.65+00:56:3816:193.7
896PIECZYNSKI Patryk 872CZARNE STOPYOpen Mężczyzn797M 99010:3001:38:05.6001:38:05.60+00:56:4416:203.7
897CHMURA Michał 590Open Mężczyzn798M 99109:4501:38:14.0501:38:14.05+00:56:5216:223.7
898BARTKOWIAK Artur 869CZARNE STOPYOpen Mężczyzn799M 99210:3001:38:14.8501:38:14.85+00:56:5316:223.7
899KRZYMIŃSKI Kamil 870CZARNE STOPYOpen Mężczyzn800M 99310:3001:38:15.1501:38:15.15+00:56:5316:223.7
900MAZURCZAK Mateusz 871CZARNE STOPYOpen Mężczyzn801M 99410:3001:38:15.5001:38:15.50+00:56:5416:223.7
901BUDEK Jakub 698Open Mężczyzn802M 99510:0001:38:25.3001:38:25.30+00:57:0416:243.7
902LINOWSKI Grzegorz 775HUSARIA RACE TEAMOpen Mężczyzn803M 99610:1501:38:33.2001:38:33.20+00:57:1216:253.7
903WRZOSEK Jarosław 415DZIKIE KOTY :)Open Mężczyzn804M 99709:3001:38:33.6501:38:33.65+00:57:1216:253.7
904BARSKI Dominik 584Open Mężczyzn805M 99809:4501:38:40.7501:38:40.75+00:57:1916:263.6
905ZARÓWNY Andrzej 1262Open Mężczyzn806M 99911:1501:38:41.5001:38:41.50+00:57:2016:263.6
906MARCULA Bartek 723Open Mężczyzn807M 100010:0001:38:47.2001:38:47.20+00:57:2616:273.6
907NOWAK Piotrek 995REKINY FITNESSUOpen Mężczyzn808M 100110:4501:39:01.5001:39:01.50+00:57:4016:303.6
908WYGLĄDAŁA Michał 1109PUMP SQUATOpen Mężczyzn809M 100211:0001:39:07.5001:39:07.50+00:57:4616:313.6
909TELISZEWSKI Maciej 206EKIPA HAIEROpen Masters Mężczyzn100M 100309:0001:39:08.3501:39:08.35+00:57:4716:313.6
910POROWSKI Tomasz 643BRAVEHARTS LEGIONOWOOpen Mężczyzn810M 100410:0001:39:08.6001:39:08.60+00:57:4716:313.6
911KUREK Paweł 649BRAVEHEARTS LEGIONOWOOpen Mężczyzn811M 100510:0001:39:09.2001:39:09.20+00:57:4816:313.6
912DAMIAN Tomasz 1572Open Mężczyzn812M 100610:0001:39:12.9501:39:12.95+00:57:5116:323.6
913TUZIMEK Krzysztof 997REKINY FITNESSUOpen Mężczyzn813M 100710:4501:39:15.6501:39:15.65+00:57:5416:323.6
914KMITA Błażej 249WOJOWNICYOpen Mężczyzn814M 100809:0001:39:26.1501:39:26.15+00:58:0416:343.6
915JAGNIĄTKOWSKI Sławomir 417DZIKOLANDOpen Mężczyzn815M 100909:4501:39:28.7501:39:28.75+00:58:0716:343.6
916WISZOWATY Hubert 570THE RICKLANTISOpen Mężczyzn816M 101009:4501:39:29.9501:39:29.95+00:58:0816:343.6
917CHODKOWSKI Tomek 644BRAVEHEARTS LEGIONOWOOpen Mężczyzn817M 101110:0001:38:45.2501:39:35.35+00:58:1416:273.6
918BABIK Artur 583Open Mężczyzn818M 101209:4501:39:36.9501:39:36.95+00:58:1516:363.6
919RADWAN Jarosław 1250Open Mężczyzn819M 101311:1501:39:37.1501:39:37.15+00:58:1516:363.6
920CHACHLOWSKI Miroslaw 1220Open Masters Mężczyzn101M 101411:1501:39:40.3001:39:40.30+00:58:1916:363.6
921PAWŁOWSKI Krzysztof 1576Open Mężczyzn820M 101509:3001:39:44.1501:39:44.15+00:58:2216:373.6
922POPIELSKI Donat 1248Open Mężczyzn821M 101611:1501:39:46.1001:39:46.10+00:58:2416:373.6
923KOPEĆ Kamil 792MONKEYS' TEAMOpen Mężczyzn822M 101710:1501:39:59.0501:39:59.05+00:58:3716:393.6
924URBAŃSKI Mikołaj 1108PUMP SQUATOpen Mężczyzn823M 101811:0001:40:02.1501:40:02.15+00:58:4016:403.6
925KAMIONOWSKI Mariusz 1171BBL OSTROLEKA / MORSY OSTROŁĘKAOpen Masters Mężczyzn102M 101911:4501:40:10.7001:40:10.70+00:58:4916:413.6
926BALEJA Artur 1190PRESTIŻOWI LORDOWIEOpen Mężczyzn824M 102011:1501:40:12.5501:40:12.55+00:58:5116:423.6
927USZYŃSKI Maciej 459NETIA SPEED 2Open Masters Mężczyzn103M 102109:3001:40:13.0501:40:13.05+00:58:5116:423.6
928KOPEĆ Łukasz 793MONKEYS' TEAMOpen Mężczyzn825M 102210:1501:40:13.9501:40:13.95+00:58:5216:423.6
929BALEJA Przemysław 1191PRESTIŻOWI LORDOWIEOpen Masters Mężczyzn104M 102311:1501:40:22.7001:40:22.70+00:59:0116:433.6
930WALENTYŃSKI Bartek 136625X100Open Mężczyzn826M 102411:4501:40:52.7001:40:52.70+00:59:3116:483.6
931WĘGRZYNEK Maciej 521Open Mężczyzn827M 102509:3001:40:56.9001:40:56.90+00:59:3516:493.6
932KALETKA Damian 1290OSP ŁAGIEWNIKI Open Mężczyzn828M 102611:3001:40:56.9501:40:56.95+00:59:3516:493.6
933MATCZAK Hubert 1565Open Mężczyzn829M 102709:0001:40:57.1501:40:57.15+00:59:3516:493.6
934WISNIOWSKI Mirosław 309BRONOWICKIE CENTRUM UBEZPIECZENIOWEOpen Masters Mężczyzn105M 102809:1501:41:07.2501:41:07.25+00:59:4616:513.6
935STRZELECKI Konrad 1350Open Mężczyzn830M 102911:3001:41:22.3501:41:22.35+01:00:0116:533.6
936ŁĄCZKOWSKI Marcin 1037Open Mężczyzn831M 103010:4501:41:33.0001:41:33.00+01:00:1116:553.5
937LEWANDOWSKI Damian 1039Open Masters Mężczyzn106M 103110:4501:41:34.7001:41:34.70+01:00:1316:553.5
938WASIK Hubert 1057Open Mężczyzn832M 103210:4501:41:38.8001:41:38.80+01:00:1716:563.5
939FRANASZEK Bartłomiej 41HUSARIA RACE TEAMOpen Mężczyzn833M 103308:3001:41:39.0501:41:39.05+01:00:1716:563.5
940NARUSZEWICZ Mateusz 435LEŚNE BOBKIOpen Mężczyzn834M 103409:3001:41:39.1001:41:39.10+01:00:1716:563.5
941STANISZEWSKI Robert 436LEŚNE BOBKIOpen Mężczyzn835M 103509:3001:41:47.3501:41:47.35+01:00:2616:573.5
942FURDAL Przemysław 1568Open Mężczyzn836M 103609:0001:41:49.8001:41:49.80+01:00:2816:583.5
943CIOŁEK Grzegorz 961AŚNAEBAEMOpen Mężczyzn837M 103710:4501:41:55.8501:41:55.85+01:00:3416:593.5
944GORAJ Adrian 1138Open Mężczyzn838M 103811:0001:42:12.1001:42:12.10+01:00:5017:023.5
945MAJEWSKI Witold 1379KREJZOLE SPOT STOLYCYOpen Masters Mężczyzn107M 103911:4501:42:15.8001:42:15.80+01:00:5417:023.5
946CZAJKOWSKI Tomasz 1023Open Masters Mężczyzn108M 104010:4501:42:21.7501:42:21.75+01:01:0017:033.5
947STIGZELIUS Teemu 492VERISTRONGOpen Mężczyzn839M 104109:3001:42:29.0001:42:29.00+01:01:0717:043.5
948SROGI Sebastian 491VERISTRONGOpen Mężczyzn840M 104209:3001:42:29.1501:42:29.15+01:01:0717:043.5
949GĄSIOREK Wojciech 1460BMW TEAMOpen Mężczyzn841M 104312:0001:42:39.6501:42:39.65+01:01:1817:063.5
950ANDRUSZKA Artur 868BRAVEHEARTS LEGIONOWOOpen Mężczyzn842M 104410:0001:42:42.1501:42:42.15+01:01:2017:073.5
951SZYMCZAK Paweł 369VIGO SYSTEMOpen Mężczyzn843M 104509:1501:42:51.0001:42:51.00+01:01:2917:083.5
952MACIEJAS Daniel 219HUSARIA RACE TEAMOpen Mężczyzn844M 104609:0001:43:11.3501:43:11.35+01:01:5017:113.5
953MALEŃCZYK Sylwester 834Open Mężczyzn845M 104710:1501:43:11.5501:43:11.55+01:01:5017:113.5
954SŁAWIŃSKI Adrian 1282KOENZYM Q10Open Mężczyzn846M 104811:3001:43:14.0001:43:14.00+01:01:5217:123.5
955DMUCHOWSKI Łukasz 1085DRIM TIMOpen Mężczyzn847M 104911:0001:43:16.9001:43:16.90+01:01:5517:123.5
956WÓJCIK Piotr 1087DRIM TIMOpen Mężczyzn848M 105011:0001:43:18.1001:43:18.10+01:01:5617:133.5
957ŚLIWIŃSKI Kamil 973BLACK SOXOpen Mężczyzn849M 105110:4501:43:20.2501:43:20.25+01:01:5917:133.5
958SIUDEK Kamil G. 738Open Mężczyzn850M 105210:0001:43:31.4501:43:31.45+01:02:1017:153.5
959ROCH Adam 1053Open Mężczyzn851M 105310:4501:43:53.3001:43:53.30+01:02:3217:183.5
960NAŻGIEWICZ Daniel 964ATMOpen Mężczyzn852M 105410:4501:43:58.4501:43:58.45+01:02:3717:193.5
961SIERECKI Zbigniew 235PIĘKNI I BESTIEOpen Masters Mężczyzn109M 105509:0001:44:24.2501:44:24.25+01:03:0317:243.4
962ŁUKASZUK Paweł 434LEŚNE BOBKIOpen Mężczyzn853M 105609:3001:44:35.2001:44:35.20+01:03:1417:253.4
963MATERKA Rafał 724Open Mężczyzn854M 105710:0001:44:45.2501:44:45.25+01:03:2417:273.4
964JACHIRA Krzysztof 768GRYF TEAMOpen Mężczyzn855M 105810:1501:44:56.8501:44:56.85+01:03:3517:293.4
965POCZEK Paweł 1050Open Mężczyzn856M 105910:4501:36:33.5001:44:58.65+01:03:3716:053.7
966MICHALCZAK Piotr 1043Open Mężczyzn857M 106010:4501:36:36.2001:44:59.40+01:03:3816:063.7
967GRZEDA Artur 1281KOENZYM Q10Open Mężczyzn858M 106111:3001:45:04.9501:45:04.95+01:03:4317:303.4
968KOPYCIŃSKI Patryk 461NO LIMIT TEAMOpen Mężczyzn859M 106209:3001:45:05.0501:45:05.05+01:03:4317:303.4
969BORSIAK Maciej 460NO LIMIT TEAMOpen Mężczyzn860M 106309:3001:45:05.2501:45:05.25+01:03:4417:303.4
970BANASIEWICZ Kamil 1280KOENZYM Q10Open Mężczyzn861M 106411:3001:45:11.8501:45:11.85+01:03:5017:313.4
971KRAJEWSKI Grzegorz 826Open Mężczyzn862M 106510:1501:45:11.8501:45:11.85+01:03:5017:313.4
972WRÓBLEWSKI Marek 312COMBAT TJWOpen Mężczyzn863M 106609:1501:45:20.8501:45:20.85+01:03:5917:333.4
973KUCHTA Piotr 918WTF?Open Mężczyzn864M 106710:3001:45:25.5501:45:25.55+01:04:0417:343.4
974CHUDIO Marcin 929Open Mężczyzn865M 106810:3001:45:32.9501:45:32.95+01:04:1117:353.4
975KOCOŃ Michał 274Open Mężczyzn866M 106909:0001:45:43.1501:45:43.15+01:04:2117:373.4
976ADAMCZYK Tomasz 1396NETCOMPANYOpen Mężczyzn867M 107011:4501:45:48.8501:45:48.85+01:04:2717:383.4
977GŁAGOWSKI Hubert 305BŁYSKAWICZNE RĘCEOpen Mężczyzn868M 107109:1501:45:49.4001:45:49.40+01:04:2817:383.4
978JÖNSSON-NIEDZIÓŁKA Martin 473SLALOM TEAMOpen Masters Mężczyzn110M 107209:3001:45:52.1001:45:52.10+01:04:3017:383.4
979PUSZER Kamil 1249Open Mężczyzn869M 107311:1501:45:58.0001:45:58.00+01:04:3617:393.4
980KINAS Mateusz 1229Open Mężczyzn870M 107411:1501:45:58.0001:45:58.00+01:04:3617:393.4
981RICHTER Łukasz 475SLALOM TEAMOpen Mężczyzn871M 107509:3001:46:12.4001:46:12.40+01:04:5117:423.4
982SCHILLER Fryderyk 424HISZPAŃSKIE SCHODYOpen Masters Mężczyzn111M 107609:3001:46:21.9001:46:21.90+01:05:0017:433.4
983CĘCELEWSKI Jarosław 419FIGLARZEOpen Masters Mężczyzn112M 107709:3001:46:24.9501:46:24.95+01:05:0317:443.4
984NAORNIAKOWSKI Tomek 474SLALOM TEAMOpen Mężczyzn872M 107809:3001:46:28.1501:46:28.15+01:05:0617:443.4
985WÓJCIK Paweł 858Open Mężczyzn873M 107910:1501:46:28.9501:46:28.95+01:05:0717:443.4
986TATARATA Paweł 1353Open Mężczyzn874M 108011:3001:46:35.9501:46:35.95+01:05:1417:453.4
987RICHTER Piotr 476SLALOM TEAMOpen Mężczyzn875M 108109:3001:46:36.2501:46:36.25+01:05:1517:463.4
988WIŚNIEWSKI Michał 1114SAMCEOpen Mężczyzn876M 108209:0001:46:47.1501:46:47.15+01:05:2517:473.4
989POGOCKI Adrian 845Open Mężczyzn877M 108310:3001:47:29.0501:47:29.05+01:06:0717:543.3
990KOZŁOWSKI Waldemar 531FIGLARZEOpen Masters Mężczyzn113M 108409:3001:47:34.6501:47:34.65+01:06:1317:553.3
991RATALEWSKI Piotr 731Open Mężczyzn878M 108510:0001:47:42.4501:47:42.45+01:06:2117:573.3
992RYCHNOWSKI Michał 420FIGLARZEOpen Mężczyzn879M 108609:3001:47:57.5501:47:57.55+01:06:3617:593.3
993NIECZYPOR Tomasz 840Open Mężczyzn880M 108710:1501:48:01.5501:48:01.55+01:06:4018:003.3
994NIEWITECKI Marcin 284Open Mężczyzn881M 108809:0001:48:53.0001:48:53.00+01:07:3118:083.3
995DOMINIK Filip 261Open Mężczyzn882M 108909:0001:48:54.1001:48:54.10+01:07:3218:093.3
996BRONIKOWSKI Kamil 356VIGO SYSTEMOpen Mężczyzn883M 109009:1501:49:04.6501:49:04.65+01:07:4318:103.3
997MARUT Andrzej 920WTF?Open Masters Mężczyzn114M 109110:3001:49:11.2001:49:11.20+01:07:5018:113.3
998HAŁASA Rafał 343PAMPUSZKIOpen Mężczyzn884M 109209:1501:49:16.7501:49:16.75+01:07:5518:123.3
999HAŁASA Karol 341PAMPUSZKIOpen Mężczyzn885M 109309:1501:49:17.9501:49:17.95+01:07:5618:123.3
1000NARKO Aleksey 283Open Mężczyzn886M 109409:0001:49:27.4001:49:27.40+01:08:0618:143.3
1001KACA Grzegorz 890NIE MA LIPYOpen Mężczyzn887M 109510:3001:49:33.4501:49:33.45+01:08:1218:153.3
1002ZIÓŁKOWSKI Michał 894NIE MA LIPYOpen Mężczyzn888M 109610:3001:49:37.4501:49:37.45+01:08:1618:163.3
1003KOBOS Piotr 891NIE MA LIPYOpen Mężczyzn889M 109710:3001:49:37.7501:49:37.75+01:08:1618:163.3
1004SKWIERAWSKI Bartosz 892NIE MA LIPYOpen Mężczyzn890M 109810:3001:49:40.9501:49:40.95+01:08:1918:163.3
1005ZIÓŁKOWSKI Adam 893NIE MA LIPYOpen Mężczyzn891M 109910:3001:49:51.5001:49:51.50+01:08:3018:183.3
1006SZCZEPAŃSKI Adrian 925WTF?Open Mężczyzn892M 110010:3001:49:59.3001:49:59.30+01:08:3818:193.3
1007RUDZIŃSKI Radosław 401Open Mężczyzn893M 110109:1501:50:03.7501:50:03.75+01:08:4218:203.3
1008PIOTROWSKI Adam 367VIGO SYSTEMOpen Mężczyzn894M 110209:1501:50:29.2501:50:29.25+01:09:0818:243.3
1009CHOROŚ Michał 211HUSARIA RACE TEAMOpen Mężczyzn895M 110309:0001:50:35.4001:50:35.40+01:09:1418:253.3
1010PYDYŚ Tomasz 1343Open Mężczyzn896M 110412:0001:51:06.7001:51:06.70+01:09:4518:313.2
1011WŁODARSKI Andrzej 1259Open Mężczyzn897M 110511:1501:51:13.7501:51:13.75+01:09:5218:323.2
1012KUŹNICKI Jakub 605Open Mężczyzn898M 110609:4501:52:12.2001:52:12.20+01:10:5118:423.2
1013KOBYLIŃSKI Paweł 307BŁYSKAWICZNE RĘCEOpen Mężczyzn899M 110709:1501:52:22.8501:52:22.85+01:11:0118:433.2
1014KOTARBA Piotr 878HUSARIA RACE TEAMOpen Mężczyzn900M 110810:3001:52:50.6501:52:50.65+01:11:2918:483.2
1015ZIĘBA Łukasz 881HUSARIA RACE TEAMOpen Mężczyzn901M 110910:3001:52:50.7001:52:50.70+01:11:2918:483.2
1016KOZŁOWSKI Kamil 1592Open Mężczyzn902M 111011:4501:53:13.3001:53:13.30+01:11:5218:523.2
1017KICEK Wojciech 361VIGO SYSTEMOpen Mężczyzn903M 111109:1501:53:34.4501:53:34.45+01:12:1318:553.2
1018MATUSZEWSKI Dominik 364VIGO SYSTEMOpen Mężczyzn904M 111209:1501:53:36.7501:53:36.75+01:12:1518:563.2
1019ABRAMOWICZ Michał 354VIGO SYSTEMOpen Mężczyzn905M 111309:1501:53:36.9501:53:36.95+01:12:1518:563.2
1020GUZOWSKI Michał 338LEKTER RECORDS TEAMOpen Mężczyzn906M 111409:1501:53:55.5001:53:55.50+01:12:3418:593.2
1021KOŃSKI Maciej 339LEKTER RECORDS TEAMOpen Mężczyzn907M 111509:1501:54:13.9501:54:13.95+01:12:5219:023.2
1022OSIEWICZ Piotr 765GASTROBEJEOpen Mężczyzn908M 111610:1501:54:33.6001:54:33.60+01:13:1219:053.1
1023ROGUSZEWSKI Mateusz 767GASTROBEJEOpen Mężczyzn909M 111710:1501:54:34.0501:54:34.05+01:13:1219:053.1
1024WOŹNIAK Rafał 233JĘCZYBUŁYOpen Mężczyzn910M 111809:0001:54:37.0501:54:37.05+01:13:1519:063.1
1025TOMASZEWSKI Krzysztof 316DZIKIE DZIKI NA KOMPROMISIE ;)Open Mężczyzn911M 111909:1501:54:40.2501:54:40.25+01:13:1919:063.1
1026PAWŁOWSKI Rafał 120Open Mężczyzn912M 112011:0001:55:22.6501:55:22.65+01:14:0119:133.1
1027PAWŁOWSKI Szymon 106616STKA MYSZONAOpen Mężczyzn913M 112111:0001:55:22.7501:55:22.75+01:14:0119:133.1
1028KRAWIEC Bartłlomiej 572VINDERENOpen Mężczyzn914M 112209:4501:55:48.7501:55:48.75+01:14:2719:183.1
1029MOTYL Mariusz 575VINDERENOpen Mężczyzn915M 112309:4501:55:48.8501:55:48.85+01:14:2719:183.1
1030DOMAŃSKI Maciej 213HUSARIA RACE TEAMOpen Masters Mężczyzn115M 112409:0001:56:12.8501:56:12.85+01:14:5119:223.1
1031FIMIARZ Maciej 358VIGO SYSTEMOpen Mężczyzn916M 112509:1501:56:19.6501:56:19.65+01:14:5819:233.1
1032KACZMAREK Filip 1467CWC ALBATROSYOpen Mężczyzn917M 112612:0001:56:50.6501:56:50.65+01:15:2919:283.1
1033ROGALA Tomasz 1468CWC ALBATROSYOpen Mężczyzn918M 112712:0001:56:50.7501:56:50.75+01:15:2919:283.1
1034ZIELINSKI Piotr 1471CWC ALBATROSYOpen Masters Mężczyzn116M 112812:0001:56:51.0001:56:51.00+01:15:2919:283.1
1035ŚLUZEK Mirosław 1469CWC ALBATROSYOpen Masters Mężczyzn117M 112912:0001:56:51.3001:56:51.30+01:15:3019:283.1
1036ŁAŚ Dawis 574VINDERENOpen Masters Mężczyzn118M 113009:4501:57:05.7001:57:05.70+01:15:4419:303.1
1037WINIARSKI Piotr 576VINDERENOpen Mężczyzn919M 113109:4501:57:38.1001:57:38.10+01:16:1619:363.1
1038ŁĄCKI Łukasz 320HARDCOROWE WYCHYLYLYBYMYOpen Mężczyzn920M 113209:1501:57:47.9501:57:47.95+01:16:2619:373.1
1039CHRUŚCIEL Szymon 1221Open Mężczyzn921M 113311:1501:57:52.9501:57:52.95+01:16:3119:383.1
1040FIORENZA Roberto 383Open Mężczyzn922M 113409:1501:58:09.6001:58:09.60+01:16:4819:413
1041MASNY Jakub 694WŚCIEKŁE LENIWCEOpen Mężczyzn923M 113510:0001:58:45.6501:58:45.65+01:17:2419:473
1042KUBICKI Andrzej 579WŚCIEKŁE LENIWCEOpen Mężczyzn924M 113610:0001:58:47.1001:58:47.10+01:17:2519:473
1043ŚLESICKI Mateusz 741Open Mężczyzn925M 113710:0001:59:28.2501:59:28.25+01:18:0719:543
1044SAWINA Krystian 734Open Mężczyzn926M 113810:0001:59:28.5501:59:28.55+01:18:0719:543
1045PĘCHERZEWSKI Robert 921WTF?Open Mężczyzn927M 113910:3001:59:58.9501:59:58.95+01:18:3719:593
1046SOWA Adam 924WTF?Open Mężczyzn928M 114010:3002:00:09.6002:00:09.60+01:18:4820:013
1047KRAJEWSKI Maciej 916WTF?Open Mężczyzn929M 114110:3002:00:10.2502:00:10.25+01:18:4920:013
1048SZCZEPAŃSKI Marcin 926WTF?Open Mężczyzn930M 114210:3002:00:18.4502:00:18.45+01:18:5720:033
1049KOSEK Marek 565PÓŁTORAMETROWE ŚWINIEOpen Mężczyzn931M 114310:3002:02:25.1502:02:25.15+01:21:0320:242.9
1050BUCZYŃSKI Jan 1486KRÓLIKI LEŚNEOpen Mężczyzn932M 114412:0002:02:40.5502:02:40.55+01:21:1920:262.9
1051DZIEKOŃSKI Jakub 887ŁAMAGEDONOpen Mężczyzn933M 114510:3002:03:37.0002:03:37.00+01:22:1520:362.9
1052POWSIŃSKI Martin 287Open Mężczyzn934M 114609:0002:03:41.6502:03:41.65+01:22:2020:362.9
1053BRACH Michał 254Open Mężczyzn935M 114709:0002:03:43.0002:03:43.00+01:22:2120:372.9
1054ZARZECKI Bartosz 889ŁAMAGEDONOpen Mężczyzn936M 114810:3002:03:43.2502:03:43.25+01:22:2220:372.9
1055PIOTROWSKI Jacek 968BAZINGA!Open Masters Mężczyzn119M 114910:4502:05:11.2502:05:11.25+01:23:5020:512.9
1056ULER Maciej 675W BIEGU PISANEOpen Mężczyzn937M 115009:1502:07:56.5002:07:56.50+01:26:3521:192.8
1057BELKA Dawid 674W BIEGU PISANEOpen Mężczyzn938M 115109:1502:07:56.5502:07:56.55+01:26:3521:192.8
1058REY Andrzej 1052Open Masters Mężczyzn120M 115210:4502:08:29.8002:08:29.80+01:27:0821:242.8
1059WOJEWÓDZKI Paweł 299Open Mężczyzn939M 115309:0002:11:29.8502:11:29.85+01:30:0821:542.7
1060KUNCEWICZ Adam 95Open Mężczyzn940M 115408:3002:13:20.9502:13:20.95+01:31:5922:132.7
1061SZYPERSKI Paweł 110Open Mężczyzn941M 115508:3002:19:19.1502:19:19.15+01:37:5723:132.6
1062HEYKE Krzysztof 89Open Masters Mężczyzn121M 115608:3002:21:16.5002:21:16.50+01:39:5523:322.5
KITA Grzegorz 1556Open Masters Mężczyzn11:45 DNF DNF--
PLUSKWA Jacek 951Open Mężczyzn10:30 DNF DNF--
SZUMERT Łukasz 519Open Mężczyzn09:30 DNF DNF--
ZIENIEWSKI Łukasz 140Open Mężczyzn12:00 DNF DNF--
JASKUŁA Michał 1003UNITED GYM ALEKSANDRÓW ŁÓDZKIOpen Mężczyzn10:45 DNF DNF--
ZAWADZKI Tomasz 1062Open Mężczyzn10:45 DNF DNF--
RULAK Jerzy 922WTF?Open Mężczyzn10:30 DNF DNF--
WEBER Patryk 1186LUDKI JAGÓDKIOpen Mężczyzn11:30 DNF DNF--
KRYPSKI Bartosz 1078CROSSFIT ŁUKÓW & CROSSFIT SIEDLCEOpen Mężczyzn11:00 DNF DNF--
OLEJNIK Franciszek 101Open Mężczyzn08:30 DNF DNF--
ŁAZEBA Wojciech 1236Open Mężczyzn11:45 DNF DNF--
KRAJEWSKI Marcin 917WTF?Open Mężczyzn10:30 DNF DNF--
RUSZNIAK Bartosz 1567Open Mężczyzn11:45 DNF DNF--
POZORSKI Tomasz 846Open Mężczyzn10:15 DNF DNF--
NOWICKI Paweł 780JEDZIEMY Z TYM KOKSEMOpen Mężczyzn10:15 DNF DNF--
NOSOWSKI Konrad 1390KREJZOLE SPOT STOLYCYOpen Mężczyzn11:45 DNF DNF--
Znaleziono 1078 wynik(ów)